<?xml version="1.0" encoding="UTF-8" standalone="no" ?>
<gpx xmlns="http://www.topografix.com/GPX/1/1" xmlns:xsi="http://www.w3.org/2001/XMLSchema-instance" xsi:schemaLocation="http://www.topografix.com/GPX/1/1 http://www.topografix.com/GPX/1/1/gpx.xsd" version="1.1" creator="VisuGPX - https://www.visugpx.com">
  <metadata>
    <name>Trace TGV</name>
    <desc><![CDATA[Suivi du parcours TGV Paris Lyon un soir de problème sur la ligne.]]></desc>
  </metadata>
  <wpt lat="47.14455" lon="4.34347">
    <ele>422</ele>
    <name><![CDATA[Start]]></name>
  </wpt>
  <wpt lat="47.03316" lon="4.40681">
    <ele>394.30834960938</ele>
    <name><![CDATA[End]]></name>
  </wpt>
  <wpt lat="46.70496" lon="4.53578">
    <ele>357</ele>
    <name><![CDATA[Start]]></name>
  </wpt>
  <wpt lat="46.58786" lon="4.60794">
    <ele>305.85385131836</ele>
    <name><![CDATA[End]]></name>
  </wpt>
  <trk>
    <name><![CDATA[Trace TGV_1]]></name>
    <trkseg>
      <trkpt lat="47.14455" lon="4.34347">
        <ele>422</ele>
        <time>2011-06-15T21:23:35Z</time>
      </trkpt>
      <trkpt lat="47.1439" lon="4.34377">
        <ele>434</ele>
        <time>2011-06-15T21:23:36Z</time>
      </trkpt>
      <trkpt lat="47.14364" lon="4.34388">
        <ele>432.75109863281</ele>
        <time>2011-06-15T21:23:37Z</time>
      </trkpt>
      <trkpt lat="47.14341" lon="4.34396">
        <ele>435.24237060547</ele>
        <time>2011-06-15T21:23:38Z</time>
      </trkpt>
      <trkpt lat="47.14317" lon="4.34406">
        <ele>437.12985229492</ele>
        <time>2011-06-15T21:23:39Z</time>
      </trkpt>
      <trkpt lat="47.14292" lon="4.34416">
        <ele>440.02984619141</ele>
        <time>2011-06-15T21:23:40Z</time>
      </trkpt>
      <trkpt lat="47.14268" lon="4.34426">
        <ele>441.54092407227</ele>
        <time>2011-06-15T21:23:41Z</time>
      </trkpt>
      <trkpt lat="47.14246" lon="4.34435">
        <ele>442.33032226562</ele>
        <time>2011-06-15T21:23:42Z</time>
      </trkpt>
      <trkpt lat="47.14221" lon="4.34446">
        <ele>443.12615966797</ele>
        <time>2011-06-15T21:23:43Z</time>
      </trkpt>
      <trkpt lat="47.14196" lon="4.34457">
        <ele>443.93524169922</ele>
        <time>2011-06-15T21:23:44Z</time>
      </trkpt>
      <trkpt lat="47.1417" lon="4.34468">
        <ele>444.21444702148</ele>
        <time>2011-06-15T21:23:45Z</time>
      </trkpt>
      <trkpt lat="47.14147" lon="4.34478">
        <ele>444.6305847168</ele>
        <time>2011-06-15T21:23:46Z</time>
      </trkpt>
      <trkpt lat="47.14124" lon="4.34488">
        <ele>444.64895629883</ele>
        <time>2011-06-15T21:23:47Z</time>
      </trkpt>
      <trkpt lat="47.141" lon="4.34499">
        <ele>444.71496582031</ele>
        <time>2011-06-15T21:23:48Z</time>
      </trkpt>
      <trkpt lat="47.14075" lon="4.3451">
        <ele>444.86608886719</ele>
        <time>2011-06-15T21:23:49Z</time>
      </trkpt>
      <trkpt lat="47.14051" lon="4.34521">
        <ele>444.99371337891</ele>
        <time>2011-06-15T21:23:50Z</time>
      </trkpt>
      <trkpt lat="47.14026" lon="4.34533">
        <ele>445.31811523438</ele>
        <time>2011-06-15T21:23:51Z</time>
      </trkpt>
      <trkpt lat="47.14003" lon="4.34544">
        <ele>445.44943237305</ele>
        <time>2011-06-15T21:23:52Z</time>
      </trkpt>
      <trkpt lat="47.1398" lon="4.34555">
        <ele>445.36926269531</ele>
        <time>2011-06-15T21:23:53Z</time>
      </trkpt>
      <trkpt lat="47.13955" lon="4.34567">
        <ele>445.39047241211</ele>
        <time>2011-06-15T21:23:54Z</time>
      </trkpt>
      <trkpt lat="47.13933" lon="4.34578">
        <ele>445.21154785156</ele>
        <time>2011-06-15T21:23:55Z</time>
      </trkpt>
      <trkpt lat="47.13907" lon="4.34591">
        <ele>445.20486450195</ele>
        <time>2011-06-15T21:23:56Z</time>
      </trkpt>
      <trkpt lat="47.13884" lon="4.34602">
        <ele>445.17306518555</ele>
        <time>2011-06-15T21:23:57Z</time>
      </trkpt>
      <trkpt lat="47.13859" lon="4.34614">
        <ele>445.03405761719</ele>
        <time>2011-06-15T21:23:58Z</time>
      </trkpt>
      <trkpt lat="47.13837" lon="4.34625">
        <ele>444.91879272461</ele>
        <time>2011-06-15T21:23:59Z</time>
      </trkpt>
      <trkpt lat="47.13813" lon="4.34637">
        <ele>444.80123901367</ele>
        <time>2011-06-15T21:24:00Z</time>
      </trkpt>
      <trkpt lat="47.13789" lon="4.34649">
        <ele>444.59912109375</ele>
        <time>2011-06-15T21:24:01Z</time>
      </trkpt>
      <trkpt lat="47.13765" lon="4.34662">
        <ele>444.38760375977</ele>
        <time>2011-06-15T21:24:02Z</time>
      </trkpt>
      <trkpt lat="47.13741" lon="4.34674">
        <ele>444.07891845703</ele>
        <time>2011-06-15T21:24:03Z</time>
      </trkpt>
      <trkpt lat="47.13719" lon="4.34686">
        <ele>443.76977539062</ele>
        <time>2011-06-15T21:24:04Z</time>
      </trkpt>
      <trkpt lat="47.13694" lon="4.34699">
        <ele>443.51663208008</ele>
        <time>2011-06-15T21:24:05Z</time>
      </trkpt>
      <trkpt lat="47.13669" lon="4.34712">
        <ele>443.32556152344</ele>
        <time>2011-06-15T21:24:06Z</time>
      </trkpt>
      <trkpt lat="47.13647" lon="4.34724">
        <ele>443.23370361328</ele>
        <time>2011-06-15T21:24:07Z</time>
      </trkpt>
      <trkpt lat="47.13624" lon="4.34737">
        <ele>443.12808227539</ele>
        <time>2011-06-15T21:24:08Z</time>
      </trkpt>
      <trkpt lat="47.13599" lon="4.3475">
        <ele>442.94683837891</ele>
        <time>2011-06-15T21:24:09Z</time>
      </trkpt>
      <trkpt lat="47.13574" lon="4.34764">
        <ele>442.75970458984</ele>
        <time>2011-06-15T21:24:10Z</time>
      </trkpt>
      <trkpt lat="47.13551" lon="4.34776">
        <ele>442.62167358398</ele>
        <time>2011-06-15T21:24:11Z</time>
      </trkpt>
      <trkpt lat="47.13529" lon="4.34788">
        <ele>442.45559692383</ele>
        <time>2011-06-15T21:24:12Z</time>
      </trkpt>
      <trkpt lat="47.13505" lon="4.34802">
        <ele>442.23233032227</ele>
        <time>2011-06-15T21:24:13Z</time>
      </trkpt>
      <trkpt lat="47.13483" lon="4.34815">
        <ele>442.0592956543</ele>
        <time>2011-06-15T21:24:14Z</time>
      </trkpt>
      <trkpt lat="47.13457" lon="4.34829">
        <ele>441.92065429688</ele>
        <time>2011-06-15T21:24:15Z</time>
      </trkpt>
      <trkpt lat="47.13436" lon="4.34841">
        <ele>441.79364013672</ele>
        <time>2011-06-15T21:24:16Z</time>
      </trkpt>
      <trkpt lat="47.13412" lon="4.34855">
        <ele>441.61599731445</ele>
        <time>2011-06-15T21:24:17Z</time>
      </trkpt>
      <trkpt lat="47.13373" lon="4.34877">
        <ele>441.2966003418</ele>
        <time>2011-06-15T21:24:18Z</time>
      </trkpt>
      <trkpt lat="47.13358" lon="4.34886">
        <ele>441.16888427734</ele>
        <time>2011-06-15T21:24:19Z</time>
      </trkpt>
      <trkpt lat="47.13335" lon="4.34899">
        <ele>440.96899414062</ele>
        <time>2011-06-15T21:24:20Z</time>
      </trkpt>
      <trkpt lat="47.13318" lon="4.34909">
        <ele>440.83834838867</ele>
        <time>2011-06-15T21:24:21Z</time>
      </trkpt>
      <trkpt lat="47.13295" lon="4.34923">
        <ele>440.65948486328</ele>
        <time>2011-06-15T21:24:22Z</time>
      </trkpt>
      <trkpt lat="47.13271" lon="4.34937">
        <ele>440.4938659668</ele>
        <time>2011-06-15T21:24:23Z</time>
      </trkpt>
      <trkpt lat="47.13247" lon="4.34951">
        <ele>440.32611083984</ele>
        <time>2011-06-15T21:24:24Z</time>
      </trkpt>
      <trkpt lat="47.13224" lon="4.34964">
        <ele>440.15246582031</ele>
        <time>2011-06-15T21:24:25Z</time>
      </trkpt>
      <trkpt lat="47.132" lon="4.34978">
        <ele>439.97003173828</ele>
        <time>2011-06-15T21:24:26Z</time>
      </trkpt>
      <trkpt lat="47.13177" lon="4.34991">
        <ele>439.81649780273</ele>
        <time>2011-06-15T21:24:27Z</time>
      </trkpt>
      <trkpt lat="47.13154" lon="4.35004">
        <ele>439.64642333984</ele>
        <time>2011-06-15T21:24:28Z</time>
      </trkpt>
      <trkpt lat="47.1313" lon="4.35018">
        <ele>439.48251342773</ele>
        <time>2011-06-15T21:24:29Z</time>
      </trkpt>
      <trkpt lat="47.13089" lon="4.35041">
        <ele>439.20986938477</ele>
        <time>2011-06-15T21:24:31Z</time>
      </trkpt>
      <trkpt lat="47.13082" lon="4.35045">
        <ele>439.16381835938</ele>
        <time>2011-06-15T21:24:31Z</time>
      </trkpt>
      <trkpt lat="47.13061" lon="4.35056">
        <ele>439.02822875977</ele>
        <time>2011-06-15T21:24:32Z</time>
      </trkpt>
      <trkpt lat="47.13037" lon="4.35069">
        <ele>438.87344360352</ele>
        <time>2011-06-15T21:24:33Z</time>
      </trkpt>
      <trkpt lat="47.13013" lon="4.35082">
        <ele>438.72283935547</ele>
        <time>2011-06-15T21:24:34Z</time>
      </trkpt>
      <trkpt lat="47.12988" lon="4.35096">
        <ele>438.56945800781</ele>
        <time>2011-06-15T21:24:35Z</time>
      </trkpt>
      <trkpt lat="47.12966" lon="4.35107">
        <ele>438.42712402344</ele>
        <time>2011-06-15T21:24:36Z</time>
      </trkpt>
      <trkpt lat="47.12942" lon="4.3512">
        <ele>438.27029418945</ele>
        <time>2011-06-15T21:24:37Z</time>
      </trkpt>
      <trkpt lat="47.12917" lon="4.35132">
        <ele>438.10311889648</ele>
        <time>2011-06-15T21:24:38Z</time>
      </trkpt>
      <trkpt lat="47.12892" lon="4.35145">
        <ele>437.92700195312</ele>
        <time>2011-06-15T21:24:39Z</time>
      </trkpt>
      <trkpt lat="47.12869" lon="4.35157">
        <ele>437.77905273438</ele>
        <time>2011-06-15T21:24:40Z</time>
      </trkpt>
      <trkpt lat="47.12846" lon="4.35168">
        <ele>437.63882446289</ele>
        <time>2011-06-15T21:24:41Z</time>
      </trkpt>
      <trkpt lat="47.12821" lon="4.3518">
        <ele>437.482421875</ele>
        <time>2011-06-15T21:24:42Z</time>
      </trkpt>
      <trkpt lat="47.12799" lon="4.3519">
        <ele>437.3444519043</ele>
        <time>2011-06-15T21:24:43Z</time>
      </trkpt>
      <trkpt lat="47.12775" lon="4.35202">
        <ele>437.19836425781</ele>
        <time>2011-06-15T21:24:44Z</time>
      </trkpt>
      <trkpt lat="47.12751" lon="4.35212">
        <ele>437.05624389648</ele>
        <time>2011-06-15T21:24:45Z</time>
      </trkpt>
      <trkpt lat="47.12721" lon="4.35226">
        <ele>436.8825378418</ele>
        <time>2011-06-15T21:24:46Z</time>
      </trkpt>
      <trkpt lat="47.12701" lon="4.35234">
        <ele>436.77084350586</ele>
        <time>2011-06-15T21:24:47Z</time>
      </trkpt>
      <trkpt lat="47.12678" lon="4.35244">
        <ele>436.63232421875</ele>
        <time>2011-06-15T21:24:48Z</time>
      </trkpt>
      <trkpt lat="47.12653" lon="4.35255">
        <ele>436.48776245117</ele>
        <time>2011-06-15T21:24:49Z</time>
      </trkpt>
      <trkpt lat="47.12629" lon="4.35265">
        <ele>436.35510253906</ele>
        <time>2011-06-15T21:24:50Z</time>
      </trkpt>
      <trkpt lat="47.12605" lon="4.35274">
        <ele>436.21719360352</ele>
        <time>2011-06-15T21:24:51Z</time>
      </trkpt>
      <trkpt lat="47.12581" lon="4.35284">
        <ele>436.0771484375</ele>
        <time>2011-06-15T21:24:52Z</time>
      </trkpt>
      <trkpt lat="47.12555" lon="4.35294">
        <ele>435.93011474609</ele>
        <time>2011-06-15T21:24:53Z</time>
      </trkpt>
      <trkpt lat="47.12532" lon="4.35302">
        <ele>435.79611206055</ele>
        <time>2011-06-15T21:24:54Z</time>
      </trkpt>
      <trkpt lat="47.12506" lon="4.35312">
        <ele>435.6506652832</ele>
        <time>2011-06-15T21:24:55Z</time>
      </trkpt>
      <trkpt lat="47.12483" lon="4.3532">
        <ele>435.52267456055</ele>
        <time>2011-06-15T21:24:56Z</time>
      </trkpt>
      <trkpt lat="47.12457" lon="4.35329">
        <ele>435.37609863281</ele>
        <time>2011-06-15T21:24:57Z</time>
      </trkpt>
      <trkpt lat="47.12434" lon="4.35337">
        <ele>435.2483215332</ele>
        <time>2011-06-15T21:24:58Z</time>
      </trkpt>
      <trkpt lat="47.12408" lon="4.35345">
        <ele>435.1103515625</ele>
        <time>2011-06-15T21:24:59Z</time>
      </trkpt>
      <trkpt lat="47.12385" lon="4.35353">
        <ele>434.98037719727</ele>
        <time>2011-06-15T21:25:00Z</time>
      </trkpt>
      <trkpt lat="47.12359" lon="4.35361">
        <ele>434.83999633789</ele>
        <time>2011-06-15T21:25:01Z</time>
      </trkpt>
      <trkpt lat="47.12334" lon="4.35368">
        <ele>434.70492553711</ele>
        <time>2011-06-15T21:25:02Z</time>
      </trkpt>
      <trkpt lat="47.1231" lon="4.35376">
        <ele>434.56756591797</ele>
        <time>2011-06-15T21:25:03Z</time>
      </trkpt>
      <trkpt lat="47.12285" lon="4.35383">
        <ele>434.43249511719</ele>
        <time>2011-06-15T21:25:04Z</time>
      </trkpt>
      <trkpt lat="47.12262" lon="4.35389">
        <ele>434.31008911133</ele>
        <time>2011-06-15T21:25:05Z</time>
      </trkpt>
      <trkpt lat="47.12237" lon="4.35396">
        <ele>434.18252563477</ele>
        <time>2011-06-15T21:25:06Z</time>
      </trkpt>
      <trkpt lat="47.12211" lon="4.35402">
        <ele>434.04727172852</ele>
        <time>2011-06-15T21:25:07Z</time>
      </trkpt>
      <trkpt lat="47.12186" lon="4.35409">
        <ele>433.91293334961</ele>
        <time>2011-06-15T21:25:08Z</time>
      </trkpt>
      <trkpt lat="47.1216" lon="4.35415">
        <ele>433.78173828125</ele>
        <time>2011-06-15T21:25:09Z</time>
      </trkpt>
      <trkpt lat="47.12138" lon="4.3542">
        <ele>433.66488647461</ele>
        <time>2011-06-15T21:25:10Z</time>
      </trkpt>
      <trkpt lat="47.12112" lon="4.35426">
        <ele>433.52877807617</ele>
        <time>2011-06-15T21:25:11Z</time>
      </trkpt>
      <trkpt lat="47.12085" lon="4.35432">
        <ele>433.38687133789</ele>
        <time>2011-06-15T21:25:12Z</time>
      </trkpt>
      <trkpt lat="47.12062" lon="4.35437">
        <ele>433.25894165039</ele>
        <time>2011-06-15T21:25:13Z</time>
      </trkpt>
      <trkpt lat="47.12038" lon="4.35442">
        <ele>433.1257019043</ele>
        <time>2011-06-15T21:25:14Z</time>
      </trkpt>
      <trkpt lat="47.12008" lon="4.35448">
        <ele>432.96069335938</ele>
        <time>2011-06-15T21:25:15Z</time>
      </trkpt>
      <trkpt lat="47.11987" lon="4.35452">
        <ele>432.84567260742</ele>
        <time>2011-06-15T21:25:16Z</time>
      </trkpt>
      <trkpt lat="47.11963" lon="4.35457">
        <ele>432.70751953125</ele>
        <time>2011-06-15T21:25:17Z</time>
      </trkpt>
      <trkpt lat="47.11938" lon="4.35461">
        <ele>432.57217407227</ele>
        <time>2011-06-15T21:25:18Z</time>
      </trkpt>
      <trkpt lat="47.11913" lon="4.35465">
        <ele>432.43508911133</ele>
        <time>2011-06-15T21:25:19Z</time>
      </trkpt>
      <trkpt lat="47.11885" lon="4.3547">
        <ele>432.28344726562</ele>
        <time>2011-06-15T21:25:20Z</time>
      </trkpt>
      <trkpt lat="47.11863" lon="4.35473">
        <ele>432.16323852539</ele>
        <time>2011-06-15T21:25:21Z</time>
      </trkpt>
      <trkpt lat="47.11838" lon="4.35477">
        <ele>432.02490234375</ele>
        <time>2011-06-15T21:25:22Z</time>
      </trkpt>
      <trkpt lat="47.11811" lon="4.35481">
        <ele>431.88394165039</ele>
        <time>2011-06-15T21:25:23Z</time>
      </trkpt>
      <trkpt lat="47.11786" lon="4.35484">
        <ele>431.74401855469</ele>
        <time>2011-06-15T21:25:24Z</time>
      </trkpt>
      <trkpt lat="47.11762" lon="4.35487">
        <ele>431.61849975586</ele>
        <time>2011-06-15T21:25:25Z</time>
      </trkpt>
      <trkpt lat="47.11737" lon="4.3549">
        <ele>431.48443603516</ele>
        <time>2011-06-15T21:25:26Z</time>
      </trkpt>
      <trkpt lat="47.11712" lon="4.35493">
        <ele>431.34671020508</ele>
        <time>2011-06-15T21:25:27Z</time>
      </trkpt>
      <trkpt lat="47.11686" lon="4.35496">
        <ele>431.20883178711</ele>
        <time>2011-06-15T21:25:28Z</time>
      </trkpt>
      <trkpt lat="47.11657" lon="4.35498">
        <ele>431.05133056641</ele>
        <time>2011-06-15T21:25:29Z</time>
      </trkpt>
      <trkpt lat="47.11636" lon="4.355">
        <ele>430.93408203125</ele>
        <time>2011-06-15T21:25:30Z</time>
      </trkpt>
      <trkpt lat="47.1161" lon="4.35503">
        <ele>430.7887878418</ele>
        <time>2011-06-15T21:25:31Z</time>
      </trkpt>
      <trkpt lat="47.11587" lon="4.35504">
        <ele>430.66049194336</ele>
        <time>2011-06-15T21:25:32Z</time>
      </trkpt>
      <trkpt lat="47.11561" lon="4.35506">
        <ele>430.51684570312</ele>
        <time>2011-06-15T21:25:33Z</time>
      </trkpt>
      <trkpt lat="47.11535" lon="4.35508">
        <ele>430.37368774414</ele>
        <time>2011-06-15T21:25:34Z</time>
      </trkpt>
      <trkpt lat="47.11511" lon="4.3551">
        <ele>430.24114990234</ele>
        <time>2011-06-15T21:25:35Z</time>
      </trkpt>
      <trkpt lat="47.11485" lon="4.35511">
        <ele>430.09448242188</ele>
        <time>2011-06-15T21:25:36Z</time>
      </trkpt>
      <trkpt lat="47.1146" lon="4.35513">
        <ele>429.94897460938</ele>
        <time>2011-06-15T21:25:37Z</time>
      </trkpt>
      <trkpt lat="47.11434" lon="4.35514">
        <ele>429.80563354492</ele>
        <time>2011-06-15T21:25:38Z</time>
      </trkpt>
      <trkpt lat="47.1141" lon="4.35515">
        <ele>429.66891479492</ele>
        <time>2011-06-15T21:25:39Z</time>
      </trkpt>
      <trkpt lat="47.11384" lon="4.35516">
        <ele>429.52575683594</ele>
        <time>2011-06-15T21:25:40Z</time>
      </trkpt>
      <trkpt lat="47.11361" lon="4.35517">
        <ele>429.3948059082</ele>
        <time>2011-06-15T21:25:41Z</time>
      </trkpt>
      <trkpt lat="47.11334" lon="4.35519">
        <ele>429.24349975586</ele>
        <time>2011-06-15T21:25:42Z</time>
      </trkpt>
      <trkpt lat="47.11308" lon="4.3552">
        <ele>429.10055541992</ele>
        <time>2011-06-15T21:25:43Z</time>
      </trkpt>
      <trkpt lat="47.11283" lon="4.3552">
        <ele>428.96069335938</ele>
        <time>2011-06-15T21:25:44Z</time>
      </trkpt>
      <trkpt lat="47.1126" lon="4.35521">
        <ele>428.83389282227</ele>
        <time>2011-06-15T21:25:45Z</time>
      </trkpt>
      <trkpt lat="47.11234" lon="4.35522">
        <ele>428.69067382812</ele>
        <time>2011-06-15T21:25:46Z</time>
      </trkpt>
      <trkpt lat="47.11207" lon="4.35523">
        <ele>428.54055786133</ele>
        <time>2011-06-15T21:25:47Z</time>
      </trkpt>
      <trkpt lat="47.11184" lon="4.35524">
        <ele>428.4130859375</ele>
        <time>2011-06-15T21:25:48Z</time>
      </trkpt>
      <trkpt lat="47.11157" lon="4.35525">
        <ele>428.26364135742</ele>
        <time>2011-06-15T21:25:49Z</time>
      </trkpt>
      <trkpt lat="47.11134" lon="4.35525">
        <ele>428.13250732422</ele>
        <time>2011-06-15T21:25:50Z</time>
      </trkpt>
      <trkpt lat="47.11108" lon="4.35526">
        <ele>427.98840332031</ele>
        <time>2011-06-15T21:25:51Z</time>
      </trkpt>
      <trkpt lat="47.1108" lon="4.35527">
        <ele>427.83242797852</ele>
        <time>2011-06-15T21:25:52Z</time>
      </trkpt>
      <trkpt lat="47.11058" lon="4.35528">
        <ele>427.70529174805</ele>
        <time>2011-06-15T21:25:53Z</time>
      </trkpt>
      <trkpt lat="47.11032" lon="4.35529">
        <ele>427.56097412109</ele>
        <time>2011-06-15T21:25:54Z</time>
      </trkpt>
      <trkpt lat="47.10982" lon="4.35531">
        <ele>427.27230834961</ele>
        <time>2011-06-15T21:25:56Z</time>
      </trkpt>
      <trkpt lat="47.10956" lon="4.35533">
        <ele>427.13006591797</ele>
        <time>2011-06-15T21:25:57Z</time>
      </trkpt>
      <trkpt lat="47.10931" lon="4.35534">
        <ele>426.98736572266</ele>
        <time>2011-06-15T21:25:58Z</time>
      </trkpt>
      <trkpt lat="47.10905" lon="4.35536">
        <ele>426.83316040039</ele>
        <time>2011-06-15T21:25:59Z</time>
      </trkpt>
      <trkpt lat="47.10882" lon="4.35537">
        <ele>426.70101928711</ele>
        <time>2011-06-15T21:26:00Z</time>
      </trkpt>
      <trkpt lat="47.10857" lon="4.35539">
        <ele>426.55740356445</ele>
        <time>2011-06-15T21:26:01Z</time>
      </trkpt>
      <trkpt lat="47.1083" lon="4.35541">
        <ele>426.4035949707</ele>
        <time>2011-06-15T21:26:02Z</time>
      </trkpt>
      <trkpt lat="47.10806" lon="4.35543">
        <ele>426.26770019531</ele>
        <time>2011-06-15T21:26:03Z</time>
      </trkpt>
      <trkpt lat="47.1078" lon="4.35545">
        <ele>426.11892700195</ele>
        <time>2011-06-15T21:26:04Z</time>
      </trkpt>
      <trkpt lat="47.10756" lon="4.35547">
        <ele>425.9836730957</ele>
        <time>2011-06-15T21:26:05Z</time>
      </trkpt>
      <trkpt lat="47.10731" lon="4.35549">
        <ele>425.84344482422</ele>
        <time>2011-06-15T21:26:06Z</time>
      </trkpt>
      <trkpt lat="47.10705" lon="4.35551">
        <ele>425.69592285156</ele>
        <time>2011-06-15T21:26:07Z</time>
      </trkpt>
      <trkpt lat="47.10679" lon="4.35553">
        <ele>425.55084228516</ele>
        <time>2011-06-15T21:26:08Z</time>
      </trkpt>
      <trkpt lat="47.10651" lon="4.35556">
        <ele>425.40036010742</ele>
        <time>2011-06-15T21:26:09Z</time>
      </trkpt>
      <trkpt lat="47.1063" lon="4.35558">
        <ele>425.28579711914</ele>
        <time>2011-06-15T21:26:10Z</time>
      </trkpt>
      <trkpt lat="47.10605" lon="4.35561">
        <ele>425.14953613281</ele>
        <time>2011-06-15T21:26:11Z</time>
      </trkpt>
      <trkpt lat="47.1058" lon="4.35564">
        <ele>425.02459716797</ele>
        <time>2011-06-15T21:26:12Z</time>
      </trkpt>
      <trkpt lat="47.10554" lon="4.35567">
        <ele>424.90356445312</ele>
        <time>2011-06-15T21:26:13Z</time>
      </trkpt>
      <trkpt lat="47.1053" lon="4.35571">
        <ele>424.79580688477</ele>
        <time>2011-06-15T21:26:14Z</time>
      </trkpt>
      <trkpt lat="47.10504" lon="4.35575">
        <ele>424.66864013672</ele>
        <time>2011-06-15T21:26:15Z</time>
      </trkpt>
      <trkpt lat="47.10477" lon="4.35579">
        <ele>424.52886962891</ele>
        <time>2011-06-15T21:26:16Z</time>
      </trkpt>
      <trkpt lat="47.10454" lon="4.35583">
        <ele>424.40774536133</ele>
        <time>2011-06-15T21:26:17Z</time>
      </trkpt>
      <trkpt lat="47.1043" lon="4.35587">
        <ele>424.2861328125</ele>
        <time>2011-06-15T21:26:18Z</time>
      </trkpt>
      <trkpt lat="47.10405" lon="4.35591">
        <ele>424.15209960938</ele>
        <time>2011-06-15T21:26:19Z</time>
      </trkpt>
      <trkpt lat="47.10379" lon="4.35596">
        <ele>424.01406860352</ele>
        <time>2011-06-15T21:26:20Z</time>
      </trkpt>
      <trkpt lat="47.10351" lon="4.35602">
        <ele>423.86077880859</ele>
        <time>2011-06-15T21:26:21Z</time>
      </trkpt>
      <trkpt lat="47.10328" lon="4.35606">
        <ele>423.7375793457</ele>
        <time>2011-06-15T21:26:22Z</time>
      </trkpt>
      <trkpt lat="47.10304" lon="4.35611">
        <ele>423.61474609375</ele>
        <time>2011-06-15T21:26:23Z</time>
      </trkpt>
      <trkpt lat="47.10279" lon="4.35617">
        <ele>423.48733520508</ele>
        <time>2011-06-15T21:26:24Z</time>
      </trkpt>
      <trkpt lat="47.10255" lon="4.35622">
        <ele>423.36706542969</ele>
        <time>2011-06-15T21:26:25Z</time>
      </trkpt>
      <trkpt lat="47.10229" lon="4.35629">
        <ele>423.23379516602</ele>
        <time>2011-06-15T21:26:26Z</time>
      </trkpt>
      <trkpt lat="47.10205" lon="4.35635">
        <ele>423.11254882812</ele>
        <time>2011-06-15T21:26:27Z</time>
      </trkpt>
      <trkpt lat="47.10181" lon="4.35641">
        <ele>422.99172973633</ele>
        <time>2011-06-15T21:26:28Z</time>
      </trkpt>
      <trkpt lat="47.10155" lon="4.35647">
        <ele>422.86117553711</ele>
        <time>2011-06-15T21:26:29Z</time>
      </trkpt>
      <trkpt lat="47.1013" lon="4.35654">
        <ele>422.72146606445</ele>
        <time>2011-06-15T21:26:30Z</time>
      </trkpt>
      <trkpt lat="47.10105" lon="4.35661">
        <ele>422.58856201172</ele>
        <time>2011-06-15T21:26:31Z</time>
      </trkpt>
      <trkpt lat="47.10079" lon="4.35669">
        <ele>422.44747924805</ele>
        <time>2011-06-15T21:26:32Z</time>
      </trkpt>
      <trkpt lat="47.10055" lon="4.35676">
        <ele>422.31790161133</ele>
        <time>2011-06-15T21:26:33Z</time>
      </trkpt>
      <trkpt lat="47.10032" lon="4.35683">
        <ele>422.18850708008</ele>
        <time>2011-06-15T21:26:34Z</time>
      </trkpt>
      <trkpt lat="47.10005" lon="4.35692">
        <ele>422.02841186523</ele>
        <time>2011-06-15T21:26:35Z</time>
      </trkpt>
      <trkpt lat="47.0998" lon="4.357">
        <ele>421.88174438477</ele>
        <time>2011-06-15T21:26:36Z</time>
      </trkpt>
      <trkpt lat="47.09956" lon="4.35709">
        <ele>421.73184204102</ele>
        <time>2011-06-15T21:26:37Z</time>
      </trkpt>
      <trkpt lat="47.09932" lon="4.35717">
        <ele>421.59170532227</ele>
        <time>2011-06-15T21:26:38Z</time>
      </trkpt>
      <trkpt lat="47.09906" lon="4.35726">
        <ele>421.43780517578</ele>
        <time>2011-06-15T21:26:39Z</time>
      </trkpt>
      <trkpt lat="47.09883" lon="4.35735">
        <ele>421.30044555664</ele>
        <time>2011-06-15T21:26:40Z</time>
      </trkpt>
      <trkpt lat="47.09861" lon="4.35743">
        <ele>421.17465209961</ele>
        <time>2011-06-15T21:26:41Z</time>
      </trkpt>
      <trkpt lat="47.09837" lon="4.35753">
        <ele>421.0260925293</ele>
        <time>2011-06-15T21:26:42Z</time>
      </trkpt>
      <trkpt lat="47.09811" lon="4.35764">
        <ele>420.86209106445</ele>
        <time>2011-06-15T21:26:43Z</time>
      </trkpt>
      <trkpt lat="47.09787" lon="4.35773">
        <ele>420.71298217773</ele>
        <time>2011-06-15T21:26:44Z</time>
      </trkpt>
      <trkpt lat="47.09764" lon="4.35783">
        <ele>420.56567382812</ele>
        <time>2011-06-15T21:26:45Z</time>
      </trkpt>
      <trkpt lat="47.0974" lon="4.35794">
        <ele>420.41549682617</ele>
        <time>2011-06-15T21:26:46Z</time>
      </trkpt>
      <trkpt lat="47.09715" lon="4.35805">
        <ele>420.24124145508</ele>
        <time>2011-06-15T21:26:47Z</time>
      </trkpt>
      <trkpt lat="47.09692" lon="4.35816">
        <ele>420.07861328125</ele>
        <time>2011-06-15T21:26:48Z</time>
      </trkpt>
      <trkpt lat="47.09666" lon="4.35828">
        <ele>419.88165283203</ele>
        <time>2011-06-15T21:26:49Z</time>
      </trkpt>
      <trkpt lat="47.09642" lon="4.3584">
        <ele>419.69723510742</ele>
        <time>2011-06-15T21:26:50Z</time>
      </trkpt>
      <trkpt lat="47.09619" lon="4.35851">
        <ele>419.52841186523</ele>
        <time>2011-06-15T21:26:51Z</time>
      </trkpt>
      <trkpt lat="47.09594" lon="4.35864">
        <ele>419.3391418457</ele>
        <time>2011-06-15T21:26:52Z</time>
      </trkpt>
      <trkpt lat="47.0957" lon="4.35876">
        <ele>419.16064453125</ele>
        <time>2011-06-15T21:26:53Z</time>
      </trkpt>
      <trkpt lat="47.09548" lon="4.35888">
        <ele>419.00106811523</ele>
        <time>2011-06-15T21:26:54Z</time>
      </trkpt>
      <trkpt lat="47.09522" lon="4.35902">
        <ele>418.81069946289</ele>
        <time>2011-06-15T21:26:55Z</time>
      </trkpt>
      <trkpt lat="47.09501" lon="4.35913">
        <ele>418.66149902344</ele>
        <time>2011-06-15T21:26:56Z</time>
      </trkpt>
      <trkpt lat="47.09478" lon="4.35927">
        <ele>418.48968505859</ele>
        <time>2011-06-15T21:26:57Z</time>
      </trkpt>
      <trkpt lat="47.09453" lon="4.35941">
        <ele>418.31423950195</ele>
        <time>2011-06-15T21:26:58Z</time>
      </trkpt>
      <trkpt lat="47.09431" lon="4.35954">
        <ele>418.15176391602</ele>
        <time>2011-06-15T21:26:59Z</time>
      </trkpt>
      <trkpt lat="47.09407" lon="4.35968">
        <ele>417.97680664062</ele>
        <time>2011-06-15T21:27:00Z</time>
      </trkpt>
      <trkpt lat="47.09385" lon="4.35981">
        <ele>417.82229614258</ele>
        <time>2011-06-15T21:27:01Z</time>
      </trkpt>
      <trkpt lat="47.09361" lon="4.35997">
        <ele>417.64868164062</ele>
        <time>2011-06-15T21:27:02Z</time>
      </trkpt>
      <trkpt lat="47.09337" lon="4.36012">
        <ele>417.47735595703</ele>
        <time>2011-06-15T21:27:03Z</time>
      </trkpt>
      <trkpt lat="47.09313" lon="4.36027">
        <ele>417.30895996094</ele>
        <time>2011-06-15T21:27:04Z</time>
      </trkpt>
      <trkpt lat="47.09291" lon="4.36041">
        <ele>417.15310668945</ele>
        <time>2011-06-15T21:27:05Z</time>
      </trkpt>
      <trkpt lat="47.0927" lon="4.36055">
        <ele>417.00393676758</ele>
        <time>2011-06-15T21:27:06Z</time>
      </trkpt>
      <trkpt lat="47.09247" lon="4.36071">
        <ele>416.84140014648</ele>
        <time>2011-06-15T21:27:07Z</time>
      </trkpt>
      <trkpt lat="47.09222" lon="4.36088">
        <ele>416.66806030273</ele>
        <time>2011-06-15T21:27:08Z</time>
      </trkpt>
      <trkpt lat="47.09201" lon="4.36102">
        <ele>416.52099609375</ele>
        <time>2011-06-15T21:27:09Z</time>
      </trkpt>
      <trkpt lat="47.09178" lon="4.36119">
        <ele>416.36288452148</ele>
        <time>2011-06-15T21:27:10Z</time>
      </trkpt>
      <trkpt lat="47.09151" lon="4.36138">
        <ele>416.17965698242</ele>
        <time>2011-06-15T21:27:11Z</time>
      </trkpt>
      <trkpt lat="47.09133" lon="4.36151">
        <ele>416.0559387207</ele>
        <time>2011-06-15T21:27:12Z</time>
      </trkpt>
      <trkpt lat="47.09111" lon="4.36167">
        <ele>415.90814208984</ele>
        <time>2011-06-15T21:27:13Z</time>
      </trkpt>
      <trkpt lat="47.09086" lon="4.36186">
        <ele>415.74047851562</ele>
        <time>2011-06-15T21:27:14Z</time>
      </trkpt>
      <trkpt lat="47.09065" lon="4.36202">
        <ele>415.59518432617</ele>
        <time>2011-06-15T21:27:15Z</time>
      </trkpt>
      <trkpt lat="47.09041" lon="4.3622">
        <ele>415.43249511719</ele>
        <time>2011-06-15T21:27:16Z</time>
      </trkpt>
      <trkpt lat="47.0902" lon="4.36236">
        <ele>415.29531860352</ele>
        <time>2011-06-15T21:27:17Z</time>
      </trkpt>
      <trkpt lat="47.08742" lon="4.36486">
        <ele>413.52520751953</ele>
        <time>2011-06-15T21:27:30Z</time>
      </trkpt>
      <trkpt lat="47.08717" lon="4.36509">
        <ele>413.36489868164</ele>
        <time>2011-06-15T21:27:31Z</time>
      </trkpt>
      <trkpt lat="47.08697" lon="4.36527">
        <ele>413.24136352539</ele>
        <time>2011-06-15T21:27:32Z</time>
      </trkpt>
      <trkpt lat="47.08675" lon="4.36547">
        <ele>413.11013793945</ele>
        <time>2011-06-15T21:27:33Z</time>
      </trkpt>
      <trkpt lat="47.08654" lon="4.36567">
        <ele>412.97836303711</ele>
        <time>2011-06-15T21:27:34Z</time>
      </trkpt>
      <trkpt lat="47.08632" lon="4.36587">
        <ele>412.8427734375</ele>
        <time>2011-06-15T21:27:35Z</time>
      </trkpt>
      <trkpt lat="47.08614" lon="4.36604">
        <ele>412.73733520508</ele>
        <time>2011-06-15T21:27:36Z</time>
      </trkpt>
      <trkpt lat="47.08592" lon="4.36625">
        <ele>412.60314941406</ele>
        <time>2011-06-15T21:27:37Z</time>
      </trkpt>
      <trkpt lat="47.08572" lon="4.36644">
        <ele>412.47659301758</ele>
        <time>2011-06-15T21:27:38Z</time>
      </trkpt>
      <trkpt lat="47.0855" lon="4.36665">
        <ele>412.349609375</ele>
        <time>2011-06-15T21:27:39Z</time>
      </trkpt>
      <trkpt lat="47.08528" lon="4.36686">
        <ele>412.21942138672</ele>
        <time>2011-06-15T21:27:40Z</time>
      </trkpt>
      <trkpt lat="47.08508" lon="4.36705">
        <ele>412.099609375</ele>
        <time>2011-06-15T21:27:41Z</time>
      </trkpt>
      <trkpt lat="47.08487" lon="4.36726">
        <ele>411.96908569336</ele>
        <time>2011-06-15T21:27:42Z</time>
      </trkpt>
      <trkpt lat="47.08466" lon="4.36746">
        <ele>411.84899902344</ele>
        <time>2011-06-15T21:27:43Z</time>
      </trkpt>
      <trkpt lat="47.08445" lon="4.36767">
        <ele>411.72695922852</ele>
        <time>2011-06-15T21:27:44Z</time>
      </trkpt>
      <trkpt lat="47.08424" lon="4.36788">
        <ele>411.60565185547</ele>
        <time>2011-06-15T21:27:45Z</time>
      </trkpt>
      <trkpt lat="47.08403" lon="4.36808">
        <ele>411.4853515625</ele>
        <time>2011-06-15T21:27:46Z</time>
      </trkpt>
      <trkpt lat="47.08382" lon="4.36829">
        <ele>411.36862182617</ele>
        <time>2011-06-15T21:27:47Z</time>
      </trkpt>
      <trkpt lat="47.08361" lon="4.3685">
        <ele>411.25473022461</ele>
        <time>2011-06-15T21:27:48Z</time>
      </trkpt>
      <trkpt lat="47.0834" lon="4.3687">
        <ele>411.14208984375</ele>
        <time>2011-06-15T21:27:49Z</time>
      </trkpt>
      <trkpt lat="47.08319" lon="4.36891">
        <ele>411.03247070312</ele>
        <time>2011-06-15T21:27:50Z</time>
      </trkpt>
      <trkpt lat="47.08299" lon="4.36911">
        <ele>410.927734375</ele>
        <time>2011-06-15T21:27:51Z</time>
      </trkpt>
      <trkpt lat="47.0828" lon="4.36931">
        <ele>410.82653808594</ele>
        <time>2011-06-15T21:27:52Z</time>
      </trkpt>
      <trkpt lat="47.08236" lon="4.36975">
        <ele>410.60537719727</ele>
        <time>2011-06-15T21:27:54Z</time>
      </trkpt>
      <trkpt lat="47.08215" lon="4.36996">
        <ele>410.49703979492</ele>
        <time>2011-06-15T21:27:55Z</time>
      </trkpt>
      <trkpt lat="47.08191" lon="4.3702">
        <ele>410.37850952148</ele>
        <time>2011-06-15T21:27:56Z</time>
      </trkpt>
      <trkpt lat="47.08172" lon="4.3704">
        <ele>410.28039550781</ele>
        <time>2011-06-15T21:27:57Z</time>
      </trkpt>
      <trkpt lat="47.08153" lon="4.37058">
        <ele>410.18646240234</ele>
        <time>2011-06-15T21:27:58Z</time>
      </trkpt>
      <trkpt lat="47.08131" lon="4.37081">
        <ele>410.07165527344</ele>
        <time>2011-06-15T21:27:59Z</time>
      </trkpt>
      <trkpt lat="47.07985" lon="4.3723">
        <ele>409.35369873047</ele>
        <time>2011-06-15T21:28:06Z</time>
      </trkpt>
      <trkpt lat="47.07965" lon="4.37251">
        <ele>409.25225830078</ele>
        <time>2011-06-15T21:28:07Z</time>
      </trkpt>
      <trkpt lat="47.07862" lon="4.37357">
        <ele>408.7526550293</ele>
        <time>2011-06-15T21:28:12Z</time>
      </trkpt>
      <trkpt lat="47.07842" lon="4.37378">
        <ele>408.65386962891</ele>
        <time>2011-06-15T21:28:13Z</time>
      </trkpt>
      <trkpt lat="47.07821" lon="4.37399">
        <ele>408.55474853516</ele>
        <time>2011-06-15T21:28:14Z</time>
      </trkpt>
      <trkpt lat="47.078" lon="4.37421">
        <ele>408.45571899414</ele>
        <time>2011-06-15T21:28:15Z</time>
      </trkpt>
      <trkpt lat="47.07779" lon="4.37443">
        <ele>408.35452270508</ele>
        <time>2011-06-15T21:28:16Z</time>
      </trkpt>
      <trkpt lat="47.07761" lon="4.37461">
        <ele>408.27011108398</ele>
        <time>2011-06-15T21:28:17Z</time>
      </trkpt>
      <trkpt lat="47.07739" lon="4.37485">
        <ele>408.16470336914</ele>
        <time>2011-06-15T21:28:18Z</time>
      </trkpt>
      <trkpt lat="47.07715" lon="4.3751">
        <ele>408.05099487305</ele>
        <time>2011-06-15T21:28:19Z</time>
      </trkpt>
      <trkpt lat="47.07698" lon="4.37527">
        <ele>407.97341918945</ele>
        <time>2011-06-15T21:28:20Z</time>
      </trkpt>
      <trkpt lat="47.07677" lon="4.37549">
        <ele>407.87634277344</ele>
        <time>2011-06-15T21:28:21Z</time>
      </trkpt>
      <trkpt lat="47.07657" lon="4.3757">
        <ele>407.78024291992</ele>
        <time>2011-06-15T21:28:22Z</time>
      </trkpt>
      <trkpt lat="47.07636" lon="4.37592">
        <ele>407.68426513672</ele>
        <time>2011-06-15T21:28:23Z</time>
      </trkpt>
      <trkpt lat="47.07534" lon="4.37699">
        <ele>407.23031616211</ele>
        <time>2011-06-15T21:28:28Z</time>
      </trkpt>
      <trkpt lat="47.07513" lon="4.3772">
        <ele>407.14016723633</ele>
        <time>2011-06-15T21:28:29Z</time>
      </trkpt>
      <trkpt lat="47.07492" lon="4.37742">
        <ele>407.05020141602</ele>
        <time>2011-06-15T21:28:30Z</time>
      </trkpt>
      <trkpt lat="47.07472" lon="4.37764">
        <ele>406.96304321289</ele>
        <time>2011-06-15T21:28:31Z</time>
      </trkpt>
      <trkpt lat="47.07451" lon="4.37785">
        <ele>406.87506103516</ele>
        <time>2011-06-15T21:28:32Z</time>
      </trkpt>
      <trkpt lat="47.07433" lon="4.37804">
        <ele>406.79956054688</ele>
        <time>2011-06-15T21:28:33Z</time>
      </trkpt>
      <trkpt lat="47.0741" lon="4.37827">
        <ele>406.70703125</ele>
        <time>2011-06-15T21:28:34Z</time>
      </trkpt>
      <trkpt lat="47.07386" lon="4.37852">
        <ele>406.60852050781</ele>
        <time>2011-06-15T21:28:35Z</time>
      </trkpt>
      <trkpt lat="47.07369" lon="4.37869">
        <ele>406.54025268555</ele>
        <time>2011-06-15T21:28:36Z</time>
      </trkpt>
      <trkpt lat="47.07349" lon="4.3789">
        <ele>406.45639038086</ele>
        <time>2011-06-15T21:28:37Z</time>
      </trkpt>
      <trkpt lat="47.07328" lon="4.37911">
        <ele>406.37243652344</ele>
        <time>2011-06-15T21:28:38Z</time>
      </trkpt>
      <trkpt lat="47.07308" lon="4.37932">
        <ele>406.28961181641</ele>
        <time>2011-06-15T21:28:39Z</time>
      </trkpt>
      <trkpt lat="47.07287" lon="4.37953">
        <ele>406.20706176758</ele>
        <time>2011-06-15T21:28:40Z</time>
      </trkpt>
      <trkpt lat="47.07265" lon="4.37975">
        <ele>406.12142944336</ele>
        <time>2011-06-15T21:28:41Z</time>
      </trkpt>
      <trkpt lat="47.07245" lon="4.37996">
        <ele>406.04153442383</ele>
        <time>2011-06-15T21:28:42Z</time>
      </trkpt>
      <trkpt lat="47.07224" lon="4.38017">
        <ele>405.96041870117</ele>
        <time>2011-06-15T21:28:43Z</time>
      </trkpt>
      <trkpt lat="47.072" lon="4.38041">
        <ele>405.86785888672</ele>
        <time>2011-06-15T21:28:44Z</time>
      </trkpt>
      <trkpt lat="47.07183" lon="4.38058">
        <ele>405.80526733398</ele>
        <time>2011-06-15T21:28:45Z</time>
      </trkpt>
      <trkpt lat="47.07162" lon="4.38079">
        <ele>405.73107910156</ele>
        <time>2011-06-15T21:28:46Z</time>
      </trkpt>
      <trkpt lat="47.07141" lon="4.38099">
        <ele>405.65701293945</ele>
        <time>2011-06-15T21:28:47Z</time>
      </trkpt>
      <trkpt lat="47.0712" lon="4.3812">
        <ele>405.58181762695</ele>
        <time>2011-06-15T21:28:48Z</time>
      </trkpt>
      <trkpt lat="47.07099" lon="4.38141">
        <ele>405.50439453125</ele>
        <time>2011-06-15T21:28:49Z</time>
      </trkpt>
      <trkpt lat="47.07078" lon="4.38161">
        <ele>405.42929077148</ele>
        <time>2011-06-15T21:28:50Z</time>
      </trkpt>
      <trkpt lat="47.07057" lon="4.38181">
        <ele>405.35491943359</ele>
        <time>2011-06-15T21:28:51Z</time>
      </trkpt>
      <trkpt lat="47.07036" lon="4.38201">
        <ele>405.28128051758</ele>
        <time>2011-06-15T21:28:52Z</time>
      </trkpt>
      <trkpt lat="47.07015" lon="4.38221">
        <ele>405.20712280273</ele>
        <time>2011-06-15T21:28:53Z</time>
      </trkpt>
      <trkpt lat="47.06996" lon="4.38239">
        <ele>405.13986206055</ele>
        <time>2011-06-15T21:28:54Z</time>
      </trkpt>
      <trkpt lat="47.06974" lon="4.3826">
        <ele>405.06240844727</ele>
        <time>2011-06-15T21:28:55Z</time>
      </trkpt>
      <trkpt lat="47.06953" lon="4.38279">
        <ele>404.98773193359</ele>
        <time>2011-06-15T21:28:56Z</time>
      </trkpt>
      <trkpt lat="47.06932" lon="4.38299">
        <ele>404.91320800781</ele>
        <time>2011-06-15T21:28:57Z</time>
      </trkpt>
      <trkpt lat="47.06914" lon="4.38316">
        <ele>404.85067749023</ele>
        <time>2011-06-15T21:28:58Z</time>
      </trkpt>
      <trkpt lat="47.0689" lon="4.38338">
        <ele>404.76574707031</ele>
        <time>2011-06-15T21:28:59Z</time>
      </trkpt>
      <trkpt lat="47.06868" lon="4.38358">
        <ele>404.68957519531</ele>
        <time>2011-06-15T21:29:00Z</time>
      </trkpt>
      <trkpt lat="47.06844" lon="4.3838">
        <ele>404.60363769531</ele>
        <time>2011-06-15T21:29:01Z</time>
      </trkpt>
      <trkpt lat="47.06828" lon="4.38394">
        <ele>404.54904174805</ele>
        <time>2011-06-15T21:29:02Z</time>
      </trkpt>
      <trkpt lat="47.06807" lon="4.38414">
        <ele>404.47467041016</ele>
        <time>2011-06-15T21:29:03Z</time>
      </trkpt>
      <trkpt lat="47.06785" lon="4.38433">
        <ele>404.39865112305</ele>
        <time>2011-06-15T21:29:04Z</time>
      </trkpt>
      <trkpt lat="47.06764" lon="4.38452">
        <ele>404.32293701172</ele>
        <time>2011-06-15T21:29:05Z</time>
      </trkpt>
      <trkpt lat="47.06742" lon="4.38471">
        <ele>404.24758911133</ele>
        <time>2011-06-15T21:29:06Z</time>
      </trkpt>
      <trkpt lat="47.0672" lon="4.3849">
        <ele>404.17166137695</ele>
        <time>2011-06-15T21:29:07Z</time>
      </trkpt>
      <trkpt lat="47.06699" lon="4.38509">
        <ele>404.09774780273</ele>
        <time>2011-06-15T21:29:08Z</time>
      </trkpt>
      <trkpt lat="47.06656" lon="4.38547">
        <ele>403.94854736328</ele>
        <time>2011-06-15T21:29:10Z</time>
      </trkpt>
      <trkpt lat="47.06634" lon="4.38566">
        <ele>403.8723449707</ele>
        <time>2011-06-15T21:29:11Z</time>
      </trkpt>
      <trkpt lat="47.06612" lon="4.38585">
        <ele>403.79721069336</ele>
        <time>2011-06-15T21:29:12Z</time>
      </trkpt>
      <trkpt lat="47.0659" lon="4.38604">
        <ele>403.72021484375</ele>
        <time>2011-06-15T21:29:13Z</time>
      </trkpt>
      <trkpt lat="47.06566" lon="4.38624">
        <ele>403.64019775391</ele>
        <time>2011-06-15T21:29:14Z</time>
      </trkpt>
      <trkpt lat="47.06546" lon="4.38642">
        <ele>403.56921386719</ele>
        <time>2011-06-15T21:29:15Z</time>
      </trkpt>
      <trkpt lat="47.06523" lon="4.38661">
        <ele>403.49166870117</ele>
        <time>2011-06-15T21:29:16Z</time>
      </trkpt>
      <trkpt lat="47.065" lon="4.38681">
        <ele>403.41372680664</ele>
        <time>2011-06-15T21:29:17Z</time>
      </trkpt>
      <trkpt lat="47.06481" lon="4.38697">
        <ele>403.34658813477</ele>
        <time>2011-06-15T21:29:18Z</time>
      </trkpt>
      <trkpt lat="47.0646" lon="4.38715">
        <ele>403.27374267578</ele>
        <time>2011-06-15T21:29:19Z</time>
      </trkpt>
      <trkpt lat="47.06434" lon="4.38737">
        <ele>403.18591308594</ele>
        <time>2011-06-15T21:29:20Z</time>
      </trkpt>
      <trkpt lat="47.06417" lon="4.38751">
        <ele>403.12716674805</ele>
        <time>2011-06-15T21:29:21Z</time>
      </trkpt>
      <trkpt lat="47.06394" lon="4.3877">
        <ele>403.04742431641</ele>
        <time>2011-06-15T21:29:22Z</time>
      </trkpt>
      <trkpt lat="47.06372" lon="4.38788">
        <ele>402.97482299805</ele>
        <time>2011-06-15T21:29:23Z</time>
      </trkpt>
      <trkpt lat="47.06347" lon="4.38809">
        <ele>402.88906860352</ele>
        <time>2011-06-15T21:29:24Z</time>
      </trkpt>
      <trkpt lat="47.06328" lon="4.38824">
        <ele>402.82427978516</ele>
        <time>2011-06-15T21:29:25Z</time>
      </trkpt>
      <trkpt lat="47.06304" lon="4.38845">
        <ele>402.74133300781</ele>
        <time>2011-06-15T21:29:26Z</time>
      </trkpt>
      <trkpt lat="47.06282" lon="4.38863">
        <ele>402.66491699219</ele>
        <time>2011-06-15T21:29:27Z</time>
      </trkpt>
      <trkpt lat="47.06263" lon="4.38878">
        <ele>402.60101318359</ele>
        <time>2011-06-15T21:29:28Z</time>
      </trkpt>
      <trkpt lat="47.0624" lon="4.38897">
        <ele>402.52249145508</ele>
        <time>2011-06-15T21:29:29Z</time>
      </trkpt>
      <trkpt lat="47.06217" lon="4.38915">
        <ele>402.4436340332</ele>
        <time>2011-06-15T21:29:30Z</time>
      </trkpt>
      <trkpt lat="47.05699" lon="4.39296">
        <ele>400.71673583984</ele>
        <time>2011-06-15T21:29:53Z</time>
      </trkpt>
      <trkpt lat="47.05678" lon="4.39312">
        <ele>400.64633178711</ele>
        <time>2011-06-15T21:29:54Z</time>
      </trkpt>
      <trkpt lat="47.05656" lon="4.39327">
        <ele>400.57470703125</ele>
        <time>2011-06-15T21:29:55Z</time>
      </trkpt>
      <trkpt lat="47.05633" lon="4.39344">
        <ele>400.49838256836</ele>
        <time>2011-06-15T21:29:56Z</time>
      </trkpt>
      <trkpt lat="47.0561" lon="4.3936">
        <ele>400.42681884766</ele>
        <time>2011-06-15T21:29:57Z</time>
      </trkpt>
      <trkpt lat="47.05588" lon="4.39376">
        <ele>400.35745239258</ele>
        <time>2011-06-15T21:29:58Z</time>
      </trkpt>
      <trkpt lat="47.05565" lon="4.39393">
        <ele>400.28186035156</ele>
        <time>2011-06-15T21:29:59Z</time>
      </trkpt>
      <trkpt lat="47.05543" lon="4.39408">
        <ele>400.21435546875</ele>
        <time>2011-06-15T21:30:00Z</time>
      </trkpt>
      <trkpt lat="47.05516" lon="4.39427">
        <ele>400.12838745117</ele>
        <time>2011-06-15T21:30:01Z</time>
      </trkpt>
      <trkpt lat="47.05493" lon="4.39443">
        <ele>400.05541992188</ele>
        <time>2011-06-15T21:30:02Z</time>
      </trkpt>
      <trkpt lat="47.05475" lon="4.39455">
        <ele>400.00186157227</ele>
        <time>2011-06-15T21:30:03Z</time>
      </trkpt>
      <trkpt lat="47.05452" lon="4.39471">
        <ele>399.93322753906</ele>
        <time>2011-06-15T21:30:04Z</time>
      </trkpt>
      <trkpt lat="47.05428" lon="4.39488">
        <ele>399.86633300781</ele>
        <time>2011-06-15T21:30:05Z</time>
      </trkpt>
      <trkpt lat="47.05407" lon="4.39502">
        <ele>399.80700683594</ele>
        <time>2011-06-15T21:30:06Z</time>
      </trkpt>
      <trkpt lat="47.05361" lon="4.39533">
        <ele>399.67742919922</ele>
        <time>2011-06-15T21:30:08Z</time>
      </trkpt>
      <trkpt lat="47.05335" lon="4.3955">
        <ele>399.60586547852</ele>
        <time>2011-06-15T21:30:09Z</time>
      </trkpt>
      <trkpt lat="47.05313" lon="4.39565">
        <ele>399.54449462891</ele>
        <time>2011-06-15T21:30:10Z</time>
      </trkpt>
      <trkpt lat="47.05291" lon="4.3958">
        <ele>399.4826965332</ele>
        <time>2011-06-15T21:30:11Z</time>
      </trkpt>
      <trkpt lat="47.05269" lon="4.39595">
        <ele>399.42095947266</ele>
        <time>2011-06-15T21:30:12Z</time>
      </trkpt>
      <trkpt lat="47.05245" lon="4.3961">
        <ele>399.3557434082</ele>
        <time>2011-06-15T21:30:13Z</time>
      </trkpt>
      <trkpt lat="47.05223" lon="4.39625">
        <ele>399.29364013672</ele>
        <time>2011-06-15T21:30:14Z</time>
      </trkpt>
      <trkpt lat="47.052" lon="4.3964">
        <ele>399.23123168945</ele>
        <time>2011-06-15T21:30:15Z</time>
      </trkpt>
      <trkpt lat="47.05176" lon="4.39656">
        <ele>399.16516113281</ele>
        <time>2011-06-15T21:30:16Z</time>
      </trkpt>
      <trkpt lat="47.05153" lon="4.3967">
        <ele>399.10406494141</ele>
        <time>2011-06-15T21:30:17Z</time>
      </trkpt>
      <trkpt lat="47.05128" lon="4.39686">
        <ele>399.03570556641</ele>
        <time>2011-06-15T21:30:18Z</time>
      </trkpt>
      <trkpt lat="47.05108" lon="4.39699">
        <ele>398.98330688477</ele>
        <time>2011-06-15T21:30:19Z</time>
      </trkpt>
      <trkpt lat="47.05083" lon="4.39715">
        <ele>398.91638183594</ele>
        <time>2011-06-15T21:30:20Z</time>
      </trkpt>
      <trkpt lat="47.05062" lon="4.39728">
        <ele>398.86022949219</ele>
        <time>2011-06-15T21:30:21Z</time>
      </trkpt>
      <trkpt lat="47.05037" lon="4.39743">
        <ele>398.79357910156</ele>
        <time>2011-06-15T21:30:22Z</time>
      </trkpt>
      <trkpt lat="47.05014" lon="4.39758">
        <ele>398.73001098633</ele>
        <time>2011-06-15T21:30:23Z</time>
      </trkpt>
      <trkpt lat="47.04991" lon="4.39772">
        <ele>398.66857910156</ele>
        <time>2011-06-15T21:30:24Z</time>
      </trkpt>
      <trkpt lat="47.04874" lon="4.39843">
        <ele>398.3528137207</ele>
        <time>2011-06-15T21:30:29Z</time>
      </trkpt>
      <trkpt lat="47.04851" lon="4.39857">
        <ele>398.29180908203</ele>
        <time>2011-06-15T21:30:30Z</time>
      </trkpt>
      <trkpt lat="47.04829" lon="4.3987">
        <ele>398.23233032227</ele>
        <time>2011-06-15T21:30:31Z</time>
      </trkpt>
      <trkpt lat="47.04804" lon="4.39885">
        <ele>398.16644287109</ele>
        <time>2011-06-15T21:30:32Z</time>
      </trkpt>
      <trkpt lat="47.04783" lon="4.39898">
        <ele>398.10928344727</ele>
        <time>2011-06-15T21:30:33Z</time>
      </trkpt>
      <trkpt lat="47.04758" lon="4.39913">
        <ele>398.04061889648</ele>
        <time>2011-06-15T21:30:34Z</time>
      </trkpt>
      <trkpt lat="47.04734" lon="4.39927">
        <ele>397.97842407227</ele>
        <time>2011-06-15T21:30:35Z</time>
      </trkpt>
      <trkpt lat="47.04711" lon="4.39941">
        <ele>397.91534423828</ele>
        <time>2011-06-15T21:30:36Z</time>
      </trkpt>
      <trkpt lat="47.04689" lon="4.39954">
        <ele>397.85565185547</ele>
        <time>2011-06-15T21:30:37Z</time>
      </trkpt>
      <trkpt lat="47.04664" lon="4.39968">
        <ele>397.79229736328</ele>
        <time>2011-06-15T21:30:38Z</time>
      </trkpt>
      <trkpt lat="47.04643" lon="4.3998">
        <ele>397.73638916016</ele>
        <time>2011-06-15T21:30:39Z</time>
      </trkpt>
      <trkpt lat="47.04619" lon="4.39994">
        <ele>397.67572021484</ele>
        <time>2011-06-15T21:30:40Z</time>
      </trkpt>
      <trkpt lat="47.04595" lon="4.40007">
        <ele>397.61529541016</ele>
        <time>2011-06-15T21:30:41Z</time>
      </trkpt>
      <trkpt lat="47.04572" lon="4.40021">
        <ele>397.55279541016</ele>
        <time>2011-06-15T21:30:42Z</time>
      </trkpt>
      <trkpt lat="47.04547" lon="4.40035">
        <ele>397.48922729492</ele>
        <time>2011-06-15T21:30:43Z</time>
      </trkpt>
      <trkpt lat="47.04525" lon="4.40047">
        <ele>397.43212890625</ele>
        <time>2011-06-15T21:30:44Z</time>
      </trkpt>
      <trkpt lat="47.04502" lon="4.40061">
        <ele>397.37161254883</ele>
        <time>2011-06-15T21:30:45Z</time>
      </trkpt>
      <trkpt lat="47.04477" lon="4.40074">
        <ele>397.3076171875</ele>
        <time>2011-06-15T21:30:46Z</time>
      </trkpt>
      <trkpt lat="47.04192" lon="4.40227">
        <ele>396.55725097656</ele>
        <time>2011-06-15T21:30:58Z</time>
      </trkpt>
      <trkpt lat="47.0417" lon="4.40239">
        <ele>396.49844360352</ele>
        <time>2011-06-15T21:30:59Z</time>
      </trkpt>
      <trkpt lat="47.04148" lon="4.4025">
        <ele>396.44131469727</ele>
        <time>2011-06-15T21:31:00Z</time>
      </trkpt>
      <trkpt lat="47.04123" lon="4.40263">
        <ele>396.37716674805</ele>
        <time>2011-06-15T21:31:01Z</time>
      </trkpt>
      <trkpt lat="47.04095" lon="4.40278">
        <ele>396.30310058594</ele>
        <time>2011-06-15T21:31:02Z</time>
      </trkpt>
      <trkpt lat="47.04076" lon="4.40288">
        <ele>396.25317382812</ele>
        <time>2011-06-15T21:31:03Z</time>
      </trkpt>
      <trkpt lat="47.04052" lon="4.40301">
        <ele>396.19073486328</ele>
        <time>2011-06-15T21:31:04Z</time>
      </trkpt>
      <trkpt lat="47.04028" lon="4.40313">
        <ele>396.12811279297</ele>
        <time>2011-06-15T21:31:05Z</time>
      </trkpt>
      <trkpt lat="47.04004" lon="4.40326">
        <ele>396.06521606445</ele>
        <time>2011-06-15T21:31:06Z</time>
      </trkpt>
      <trkpt lat="47.03981" lon="4.40338">
        <ele>396.00564575195</ele>
        <time>2011-06-15T21:31:07Z</time>
      </trkpt>
      <trkpt lat="47.03862" lon="4.404">
        <ele>395.69680786133</ele>
        <time>2011-06-15T21:31:12Z</time>
      </trkpt>
      <trkpt lat="47.03839" lon="4.40413">
        <ele>395.63479614258</ele>
        <time>2011-06-15T21:31:13Z</time>
      </trkpt>
      <trkpt lat="47.03815" lon="4.40425">
        <ele>395.57385253906</ele>
        <time>2011-06-15T21:31:14Z</time>
      </trkpt>
      <trkpt lat="47.03791" lon="4.40438">
        <ele>395.51403808594</ele>
        <time>2011-06-15T21:31:15Z</time>
      </trkpt>
      <trkpt lat="47.03756" lon="4.40456">
        <ele>395.42547607422</ele>
        <time>2011-06-15T21:31:16Z</time>
      </trkpt>
      <trkpt lat="47.03743" lon="4.40462">
        <ele>395.39447021484</ele>
        <time>2011-06-15T21:31:17Z</time>
      </trkpt>
      <trkpt lat="47.0372" lon="4.40475">
        <ele>395.33587646484</ele>
        <time>2011-06-15T21:31:18Z</time>
      </trkpt>
      <trkpt lat="47.03693" lon="4.40489">
        <ele>395.26846313477</ele>
        <time>2011-06-15T21:31:19Z</time>
      </trkpt>
      <trkpt lat="47.03672" lon="4.40499">
        <ele>395.21838378906</ele>
        <time>2011-06-15T21:31:20Z</time>
      </trkpt>
      <trkpt lat="47.03649" lon="4.40512">
        <ele>395.15893554688</ele>
        <time>2011-06-15T21:31:21Z</time>
      </trkpt>
      <trkpt lat="47.03625" lon="4.40524">
        <ele>395.09851074219</ele>
        <time>2011-06-15T21:31:22Z</time>
      </trkpt>
      <trkpt lat="47.036" lon="4.40537">
        <ele>395.03787231445</ele>
        <time>2011-06-15T21:31:23Z</time>
      </trkpt>
      <trkpt lat="47.03574" lon="4.40551">
        <ele>394.97134399414</ele>
        <time>2011-06-15T21:31:24Z</time>
      </trkpt>
      <trkpt lat="47.03553" lon="4.40561">
        <ele>394.91833496094</ele>
        <time>2011-06-15T21:31:25Z</time>
      </trkpt>
      <trkpt lat="47.03529" lon="4.40573">
        <ele>394.8586730957</ele>
        <time>2011-06-15T21:31:26Z</time>
      </trkpt>
      <trkpt lat="47.03506" lon="4.40585">
        <ele>394.798828125</ele>
        <time>2011-06-15T21:31:27Z</time>
      </trkpt>
      <trkpt lat="47.03482" lon="4.40597">
        <ele>394.73852539062</ele>
        <time>2011-06-15T21:31:28Z</time>
      </trkpt>
      <trkpt lat="47.03459" lon="4.40609">
        <ele>394.67660522461</ele>
        <time>2011-06-15T21:31:29Z</time>
      </trkpt>
      <trkpt lat="47.03434" lon="4.40622">
        <ele>394.61190795898</ele>
        <time>2011-06-15T21:31:30Z</time>
      </trkpt>
      <trkpt lat="47.03411" lon="4.40634">
        <ele>394.5524597168</ele>
        <time>2011-06-15T21:31:31Z</time>
      </trkpt>
      <trkpt lat="47.03387" lon="4.40645">
        <ele>394.49166870117</ele>
        <time>2011-06-15T21:31:32Z</time>
      </trkpt>
      <trkpt lat="47.03363" lon="4.40657">
        <ele>394.42971801758</ele>
        <time>2011-06-15T21:31:33Z</time>
      </trkpt>
      <trkpt lat="47.0334" lon="4.40669">
        <ele>394.37060546875</ele>
        <time>2011-06-15T21:31:34Z</time>
      </trkpt>
      <trkpt lat="47.03316" lon="4.40681">
        <ele>394.30834960938</ele>
        <time>2011-06-15T21:31:35Z</time>
      </trkpt>
      <trkpt lat="46.70496" lon="4.53578">
        <ele>357</ele>
        <time>2011-06-15T21:35:31Z</time>
      </trkpt>
      <trkpt lat="46.70394" lon="4.53702">
        <ele>351</ele>
        <time>2011-06-15T21:35:33Z</time>
      </trkpt>
      <trkpt lat="46.70374" lon="4.53729">
        <ele>347.19793701172</ele>
        <time>2011-06-15T21:35:34Z</time>
      </trkpt>
      <trkpt lat="46.70357" lon="4.53752">
        <ele>346.50057983398</ele>
        <time>2011-06-15T21:35:35Z</time>
      </trkpt>
      <trkpt lat="46.70339" lon="4.53778">
        <ele>345.71856689453</ele>
        <time>2011-06-15T21:35:36Z</time>
      </trkpt>
      <trkpt lat="46.70322" lon="4.53803">
        <ele>345.24145507812</ele>
        <time>2011-06-15T21:35:37Z</time>
      </trkpt>
      <trkpt lat="46.70304" lon="4.53828">
        <ele>345.11212158203</ele>
        <time>2011-06-15T21:35:38Z</time>
      </trkpt>
      <trkpt lat="46.70286" lon="4.53856">
        <ele>345.10125732422</ele>
        <time>2011-06-15T21:35:39Z</time>
      </trkpt>
      <trkpt lat="46.70269" lon="4.53881">
        <ele>344.93756103516</ele>
        <time>2011-06-15T21:35:40Z</time>
      </trkpt>
      <trkpt lat="46.70251" lon="4.53908">
        <ele>344.79962158203</ele>
        <time>2011-06-15T21:35:41Z</time>
      </trkpt>
      <trkpt lat="46.70234" lon="4.53935">
        <ele>344.5634765625</ele>
        <time>2011-06-15T21:35:42Z</time>
      </trkpt>
      <trkpt lat="46.70218" lon="4.53962">
        <ele>344.47418212891</ele>
        <time>2011-06-15T21:35:43Z</time>
      </trkpt>
      <trkpt lat="46.70202" lon="4.53988">
        <ele>344.45034790039</ele>
        <time>2011-06-15T21:35:44Z</time>
      </trkpt>
      <trkpt lat="46.70185" lon="4.54016">
        <ele>344.28332519531</ele>
        <time>2011-06-15T21:35:45Z</time>
      </trkpt>
      <trkpt lat="46.70169" lon="4.54044">
        <ele>344.13641357422</ele>
        <time>2011-06-15T21:35:46Z</time>
      </trkpt>
      <trkpt lat="46.70153" lon="4.54073">
        <ele>344.0048828125</ele>
        <time>2011-06-15T21:35:47Z</time>
      </trkpt>
      <trkpt lat="46.70135" lon="4.54104">
        <ele>343.87725830078</ele>
        <time>2011-06-15T21:35:48Z</time>
      </trkpt>
      <trkpt lat="46.70121" lon="4.54129">
        <ele>343.71536254883</ele>
        <time>2011-06-15T21:35:49Z</time>
      </trkpt>
      <trkpt lat="46.70105" lon="4.54158">
        <ele>343.40985107422</ele>
        <time>2011-06-15T21:35:50Z</time>
      </trkpt>
      <trkpt lat="46.70088" lon="4.54189">
        <ele>343.07336425781</ele>
        <time>2011-06-15T21:35:51Z</time>
      </trkpt>
      <trkpt lat="46.70073" lon="4.54216">
        <ele>342.77554321289</ele>
        <time>2011-06-15T21:35:52Z</time>
      </trkpt>
      <trkpt lat="46.70057" lon="4.54245">
        <ele>342.44744873047</ele>
        <time>2011-06-15T21:35:53Z</time>
      </trkpt>
      <trkpt lat="46.70041" lon="4.54274">
        <ele>342.15179443359</ele>
        <time>2011-06-15T21:35:54Z</time>
      </trkpt>
      <trkpt lat="46.70026" lon="4.54302">
        <ele>341.85668945312</ele>
        <time>2011-06-15T21:35:55Z</time>
      </trkpt>
      <trkpt lat="46.7001" lon="4.54331">
        <ele>341.56747436523</ele>
        <time>2011-06-15T21:35:56Z</time>
      </trkpt>
      <trkpt lat="46.69994" lon="4.5436">
        <ele>341.30322265625</ele>
        <time>2011-06-15T21:35:57Z</time>
      </trkpt>
      <trkpt lat="46.69978" lon="4.54388">
        <ele>341.00335693359</ele>
        <time>2011-06-15T21:35:58Z</time>
      </trkpt>
      <trkpt lat="46.69963" lon="4.54415">
        <ele>340.69744873047</ele>
        <time>2011-06-15T21:35:59Z</time>
      </trkpt>
      <trkpt lat="46.69946" lon="4.54444">
        <ele>340.33450317383</ele>
        <time>2011-06-15T21:36:00Z</time>
      </trkpt>
      <trkpt lat="46.6993" lon="4.54472">
        <ele>340.01190185547</ele>
        <time>2011-06-15T21:36:01Z</time>
      </trkpt>
      <trkpt lat="46.69914" lon="4.545">
        <ele>339.67614746094</ele>
        <time>2011-06-15T21:36:02Z</time>
      </trkpt>
      <trkpt lat="46.69897" lon="4.54528">
        <ele>339.3410949707</ele>
        <time>2011-06-15T21:36:03Z</time>
      </trkpt>
      <trkpt lat="46.69881" lon="4.54555">
        <ele>339.02267456055</ele>
        <time>2011-06-15T21:36:04Z</time>
      </trkpt>
      <trkpt lat="46.69864" lon="4.54582">
        <ele>338.74166870117</ele>
        <time>2011-06-15T21:36:05Z</time>
      </trkpt>
      <trkpt lat="46.69847" lon="4.5461">
        <ele>338.41494750977</ele>
        <time>2011-06-15T21:36:06Z</time>
      </trkpt>
      <trkpt lat="46.6983" lon="4.54637">
        <ele>338.1042175293</ele>
        <time>2011-06-15T21:36:07Z</time>
      </trkpt>
      <trkpt lat="46.69813" lon="4.54664">
        <ele>337.80395507812</ele>
        <time>2011-06-15T21:36:08Z</time>
      </trkpt>
      <trkpt lat="46.69796" lon="4.54691">
        <ele>337.50369262695</ele>
        <time>2011-06-15T21:36:09Z</time>
      </trkpt>
      <trkpt lat="46.69778" lon="4.54718">
        <ele>337.20886230469</ele>
        <time>2011-06-15T21:36:10Z</time>
      </trkpt>
      <trkpt lat="46.69761" lon="4.54744">
        <ele>336.93829345703</ele>
        <time>2011-06-15T21:36:11Z</time>
      </trkpt>
      <trkpt lat="46.69744" lon="4.54771">
        <ele>336.67233276367</ele>
        <time>2011-06-15T21:36:12Z</time>
      </trkpt>
      <trkpt lat="46.69726" lon="4.54797">
        <ele>336.41748046875</ele>
        <time>2011-06-15T21:36:13Z</time>
      </trkpt>
      <trkpt lat="46.69708" lon="4.54823">
        <ele>336.18704223633</ele>
        <time>2011-06-15T21:36:14Z</time>
      </trkpt>
      <trkpt lat="46.69689" lon="4.5485">
        <ele>335.93676757812</ele>
        <time>2011-06-15T21:36:15Z</time>
      </trkpt>
      <trkpt lat="46.69672" lon="4.54874">
        <ele>335.72137451172</ele>
        <time>2011-06-15T21:36:16Z</time>
      </trkpt>
      <trkpt lat="46.69654" lon="4.54899">
        <ele>335.50561523438</ele>
        <time>2011-06-15T21:36:17Z</time>
      </trkpt>
      <trkpt lat="46.69618" lon="4.54947">
        <ele>335.10803222656</ele>
        <time>2011-06-15T21:36:19Z</time>
      </trkpt>
      <trkpt lat="46.6956" lon="4.55022">
        <ele>334.53182983398</ele>
        <time>2011-06-15T21:36:22Z</time>
      </trkpt>
      <trkpt lat="46.69542" lon="4.55044">
        <ele>334.3659362793</ele>
        <time>2011-06-15T21:36:23Z</time>
      </trkpt>
      <trkpt lat="46.69521" lon="4.5507">
        <ele>334.17364501953</ele>
        <time>2011-06-15T21:36:24Z</time>
      </trkpt>
      <trkpt lat="46.69502" lon="4.55093">
        <ele>334.00326538086</ele>
        <time>2011-06-15T21:36:25Z</time>
      </trkpt>
      <trkpt lat="46.69464" lon="4.55137">
        <ele>333.67584228516</ele>
        <time>2011-06-15T21:36:27Z</time>
      </trkpt>
      <trkpt lat="46.69443" lon="4.55162">
        <ele>333.49588012695</ele>
        <time>2011-06-15T21:36:28Z</time>
      </trkpt>
      <trkpt lat="46.6942" lon="4.55188">
        <ele>333.31042480469</ele>
        <time>2011-06-15T21:36:29Z</time>
      </trkpt>
      <trkpt lat="46.69403" lon="4.55207">
        <ele>333.17687988281</ele>
        <time>2011-06-15T21:36:30Z</time>
      </trkpt>
      <trkpt lat="46.69383" lon="4.5523">
        <ele>333.01068115234</ele>
        <time>2011-06-15T21:36:31Z</time>
      </trkpt>
      <trkpt lat="46.69364" lon="4.5525">
        <ele>332.86553955078</ele>
        <time>2011-06-15T21:36:32Z</time>
      </trkpt>
      <trkpt lat="46.69344" lon="4.55272">
        <ele>332.70953369141</ele>
        <time>2011-06-15T21:36:33Z</time>
      </trkpt>
      <trkpt lat="46.69323" lon="4.55294">
        <ele>332.54837036133</ele>
        <time>2011-06-15T21:36:34Z</time>
      </trkpt>
      <trkpt lat="46.69302" lon="4.55316">
        <ele>332.3876953125</ele>
        <time>2011-06-15T21:36:35Z</time>
      </trkpt>
      <trkpt lat="46.69283" lon="4.55337">
        <ele>332.24285888672</ele>
        <time>2011-06-15T21:36:36Z</time>
      </trkpt>
      <trkpt lat="46.69262" lon="4.55358">
        <ele>332.09426879883</ele>
        <time>2011-06-15T21:36:37Z</time>
      </trkpt>
      <trkpt lat="46.69242" lon="4.55379">
        <ele>331.94918823242</ele>
        <time>2011-06-15T21:36:38Z</time>
      </trkpt>
      <trkpt lat="46.69223" lon="4.55399">
        <ele>331.81036376953</ele>
        <time>2011-06-15T21:36:39Z</time>
      </trkpt>
      <trkpt lat="46.692" lon="4.55422">
        <ele>331.64920043945</ele>
        <time>2011-06-15T21:36:40Z</time>
      </trkpt>
      <trkpt lat="46.69181" lon="4.55441">
        <ele>331.50842285156</ele>
        <time>2011-06-15T21:36:41Z</time>
      </trkpt>
      <trkpt lat="46.69158" lon="4.55463">
        <ele>331.33581542969</ele>
        <time>2011-06-15T21:36:42Z</time>
      </trkpt>
      <trkpt lat="46.69138" lon="4.55482">
        <ele>331.19415283203</ele>
        <time>2011-06-15T21:36:43Z</time>
      </trkpt>
      <trkpt lat="46.69117" lon="4.55502">
        <ele>331.0495300293</ele>
        <time>2011-06-15T21:36:44Z</time>
      </trkpt>
      <trkpt lat="46.69097" lon="4.55521">
        <ele>330.91696166992</ele>
        <time>2011-06-15T21:36:45Z</time>
      </trkpt>
      <trkpt lat="46.69074" lon="4.55542">
        <ele>330.76235961914</ele>
        <time>2011-06-15T21:36:46Z</time>
      </trkpt>
      <trkpt lat="46.69054" lon="4.5556">
        <ele>330.62759399414</ele>
        <time>2011-06-15T21:36:47Z</time>
      </trkpt>
      <trkpt lat="46.69032" lon="4.55579">
        <ele>330.47998046875</ele>
        <time>2011-06-15T21:36:48Z</time>
      </trkpt>
      <trkpt lat="46.68999" lon="4.55609">
        <ele>330.25521850586</ele>
        <time>2011-06-15T21:36:49Z</time>
      </trkpt>
      <trkpt lat="46.68987" lon="4.55619">
        <ele>330.17736816406</ele>
        <time>2011-06-15T21:36:50Z</time>
      </trkpt>
      <trkpt lat="46.68967" lon="4.55635">
        <ele>330.0537109375</ele>
        <time>2011-06-15T21:36:51Z</time>
      </trkpt>
      <trkpt lat="46.68944" lon="4.55655">
        <ele>329.90924072266</ele>
        <time>2011-06-15T21:36:52Z</time>
      </trkpt>
      <trkpt lat="46.68922" lon="4.55673">
        <ele>329.76812744141</ele>
        <time>2011-06-15T21:36:53Z</time>
      </trkpt>
      <trkpt lat="46.689" lon="4.55691">
        <ele>329.62133789062</ele>
        <time>2011-06-15T21:36:54Z</time>
      </trkpt>
      <trkpt lat="46.68879" lon="4.55707">
        <ele>329.48895263672</ele>
        <time>2011-06-15T21:36:55Z</time>
      </trkpt>
      <trkpt lat="46.68857" lon="4.55724">
        <ele>329.34747314453</ele>
        <time>2011-06-15T21:36:56Z</time>
      </trkpt>
      <trkpt lat="46.68835" lon="4.55741">
        <ele>329.20953369141</ele>
        <time>2011-06-15T21:36:57Z</time>
      </trkpt>
      <trkpt lat="46.68812" lon="4.55758">
        <ele>329.07415771484</ele>
        <time>2011-06-15T21:36:58Z</time>
      </trkpt>
      <trkpt lat="46.6879" lon="4.55775">
        <ele>328.93368530273</ele>
        <time>2011-06-15T21:36:59Z</time>
      </trkpt>
      <trkpt lat="46.68768" lon="4.55791">
        <ele>328.79721069336</ele>
        <time>2011-06-15T21:37:00Z</time>
      </trkpt>
      <trkpt lat="46.68745" lon="4.55808">
        <ele>328.66134643555</ele>
        <time>2011-06-15T21:37:01Z</time>
      </trkpt>
      <trkpt lat="46.6872" lon="4.55826">
        <ele>328.51599121094</ele>
        <time>2011-06-15T21:37:02Z</time>
      </trkpt>
      <trkpt lat="46.68699" lon="4.55841">
        <ele>328.38702392578</ele>
        <time>2011-06-15T21:37:03Z</time>
      </trkpt>
      <trkpt lat="46.68677" lon="4.55856">
        <ele>328.25439453125</ele>
        <time>2011-06-15T21:37:04Z</time>
      </trkpt>
      <trkpt lat="46.68652" lon="4.55873">
        <ele>328.11114501953</ele>
        <time>2011-06-15T21:37:05Z</time>
      </trkpt>
      <trkpt lat="46.6863" lon="4.55889">
        <ele>327.98257446289</ele>
        <time>2011-06-15T21:37:06Z</time>
      </trkpt>
      <trkpt lat="46.68607" lon="4.55904">
        <ele>327.85607910156</ele>
        <time>2011-06-15T21:37:07Z</time>
      </trkpt>
      <trkpt lat="46.68582" lon="4.55921">
        <ele>327.71817016602</ele>
        <time>2011-06-15T21:37:08Z</time>
      </trkpt>
      <trkpt lat="46.68564" lon="4.55933">
        <ele>327.61303710938</ele>
        <time>2011-06-15T21:37:09Z</time>
      </trkpt>
      <trkpt lat="46.68539" lon="4.55949">
        <ele>327.47409057617</ele>
        <time>2011-06-15T21:37:10Z</time>
      </trkpt>
      <trkpt lat="46.68515" lon="4.55965">
        <ele>327.34133911133</ele>
        <time>2011-06-15T21:37:11Z</time>
      </trkpt>
      <trkpt lat="46.6849" lon="4.55981">
        <ele>327.20748901367</ele>
        <time>2011-06-15T21:37:12Z</time>
      </trkpt>
      <trkpt lat="46.6847" lon="4.55993">
        <ele>327.09832763672</ele>
        <time>2011-06-15T21:37:13Z</time>
      </trkpt>
      <trkpt lat="46.68446" lon="4.56008">
        <ele>326.96795654297</ele>
        <time>2011-06-15T21:37:14Z</time>
      </trkpt>
      <trkpt lat="46.68423" lon="4.56023">
        <ele>326.84384155273</ele>
        <time>2011-06-15T21:37:15Z</time>
      </trkpt>
      <trkpt lat="46.68399" lon="4.56038">
        <ele>326.71661376953</ele>
        <time>2011-06-15T21:37:16Z</time>
      </trkpt>
      <trkpt lat="46.68375" lon="4.56053">
        <ele>326.58978271484</ele>
        <time>2011-06-15T21:37:17Z</time>
      </trkpt>
      <trkpt lat="46.68355" lon="4.56065">
        <ele>326.48999023438</ele>
        <time>2011-06-15T21:37:18Z</time>
      </trkpt>
      <trkpt lat="46.68332" lon="4.56079">
        <ele>326.3671875</ele>
        <time>2011-06-15T21:37:19Z</time>
      </trkpt>
      <trkpt lat="46.68309" lon="4.56093">
        <ele>326.24624633789</ele>
        <time>2011-06-15T21:37:20Z</time>
      </trkpt>
      <trkpt lat="46.68283" lon="4.56109">
        <ele>326.11380004883</ele>
        <time>2011-06-15T21:37:21Z</time>
      </trkpt>
      <trkpt lat="46.68261" lon="4.56122">
        <ele>325.99737548828</ele>
        <time>2011-06-15T21:37:22Z</time>
      </trkpt>
      <trkpt lat="46.68234" lon="4.56138">
        <ele>325.85733032227</ele>
        <time>2011-06-15T21:37:23Z</time>
      </trkpt>
      <trkpt lat="46.68213" lon="4.56151">
        <ele>325.74710083008</ele>
        <time>2011-06-15T21:37:24Z</time>
      </trkpt>
      <trkpt lat="46.68193" lon="4.56163">
        <ele>325.64694213867</ele>
        <time>2011-06-15T21:37:25Z</time>
      </trkpt>
      <trkpt lat="46.68167" lon="4.56178">
        <ele>325.51571655273</ele>
        <time>2011-06-15T21:37:26Z</time>
      </trkpt>
      <trkpt lat="46.68143" lon="4.56192">
        <ele>325.39202880859</ele>
        <time>2011-06-15T21:37:27Z</time>
      </trkpt>
      <trkpt lat="46.68122" lon="4.56205">
        <ele>325.28561401367</ele>
        <time>2011-06-15T21:37:28Z</time>
      </trkpt>
      <trkpt lat="46.68099" lon="4.56218">
        <ele>325.17092895508</ele>
        <time>2011-06-15T21:37:29Z</time>
      </trkpt>
      <trkpt lat="46.68075" lon="4.56232">
        <ele>325.04711914062</ele>
        <time>2011-06-15T21:37:30Z</time>
      </trkpt>
      <trkpt lat="46.6805" lon="4.56247">
        <ele>324.91815185547</ele>
        <time>2011-06-15T21:37:31Z</time>
      </trkpt>
      <trkpt lat="46.68029" lon="4.56259">
        <ele>324.81274414062</ele>
        <time>2011-06-15T21:37:32Z</time>
      </trkpt>
      <trkpt lat="46.68001" lon="4.56275">
        <ele>324.67962646484</ele>
        <time>2011-06-15T21:37:33Z</time>
      </trkpt>
      <trkpt lat="46.67979" lon="4.56288">
        <ele>324.56838989258</ele>
        <time>2011-06-15T21:37:34Z</time>
      </trkpt>
      <trkpt lat="46.67956" lon="4.56302">
        <ele>324.45443725586</ele>
        <time>2011-06-15T21:37:35Z</time>
      </trkpt>
      <trkpt lat="46.67931" lon="4.56316">
        <ele>324.33291625977</ele>
        <time>2011-06-15T21:37:36Z</time>
      </trkpt>
      <trkpt lat="46.67906" lon="4.5633">
        <ele>324.20901489258</ele>
        <time>2011-06-15T21:37:37Z</time>
      </trkpt>
      <trkpt lat="46.67885" lon="4.56342">
        <ele>324.10803222656</ele>
        <time>2011-06-15T21:37:38Z</time>
      </trkpt>
      <trkpt lat="46.67861" lon="4.56356">
        <ele>323.98861694336</ele>
        <time>2011-06-15T21:37:39Z</time>
      </trkpt>
      <trkpt lat="46.67839" lon="4.56369">
        <ele>323.87899780273</ele>
        <time>2011-06-15T21:37:40Z</time>
      </trkpt>
      <trkpt lat="46.67816" lon="4.56381">
        <ele>323.76647949219</ele>
        <time>2011-06-15T21:37:41Z</time>
      </trkpt>
      <trkpt lat="46.67795" lon="4.56393">
        <ele>323.6591796875</ele>
        <time>2011-06-15T21:37:42Z</time>
      </trkpt>
      <trkpt lat="46.6777" lon="4.56408">
        <ele>323.53512573242</ele>
        <time>2011-06-15T21:37:43Z</time>
      </trkpt>
      <trkpt lat="46.67745" lon="4.56421">
        <ele>323.41680908203</ele>
        <time>2011-06-15T21:37:44Z</time>
      </trkpt>
      <trkpt lat="46.67717" lon="4.56438">
        <ele>323.27853393555</ele>
        <time>2011-06-15T21:37:45Z</time>
      </trkpt>
      <trkpt lat="46.67701" lon="4.56447">
        <ele>323.20294189453</ele>
        <time>2011-06-15T21:37:46Z</time>
      </trkpt>
      <trkpt lat="46.67676" lon="4.5646">
        <ele>323.08825683594</ele>
        <time>2011-06-15T21:37:47Z</time>
      </trkpt>
      <trkpt lat="46.6765" lon="4.56475">
        <ele>322.96298217773</ele>
        <time>2011-06-15T21:37:48Z</time>
      </trkpt>
      <trkpt lat="46.67631" lon="4.56486">
        <ele>322.86874389648</ele>
        <time>2011-06-15T21:37:49Z</time>
      </trkpt>
      <trkpt lat="46.67607" lon="4.56499">
        <ele>322.75555419922</ele>
        <time>2011-06-15T21:37:50Z</time>
      </trkpt>
      <trkpt lat="46.67582" lon="4.56513">
        <ele>322.64053344727</ele>
        <time>2011-06-15T21:37:51Z</time>
      </trkpt>
      <trkpt lat="46.67559" lon="4.56526">
        <ele>322.53350830078</ele>
        <time>2011-06-15T21:37:52Z</time>
      </trkpt>
      <trkpt lat="46.67537" lon="4.56539">
        <ele>322.43014526367</ele>
        <time>2011-06-15T21:37:53Z</time>
      </trkpt>
      <trkpt lat="46.67511" lon="4.56553">
        <ele>322.31484985352</ele>
        <time>2011-06-15T21:37:54Z</time>
      </trkpt>
      <trkpt lat="46.67489" lon="4.56566">
        <ele>322.20947265625</ele>
        <time>2011-06-15T21:37:55Z</time>
      </trkpt>
      <trkpt lat="46.67465" lon="4.5658">
        <ele>322.10089111328</ele>
        <time>2011-06-15T21:37:56Z</time>
      </trkpt>
      <trkpt lat="46.67442" lon="4.56593">
        <ele>321.99319458008</ele>
        <time>2011-06-15T21:37:57Z</time>
      </trkpt>
      <trkpt lat="46.67419" lon="4.56606">
        <ele>321.8923034668</ele>
        <time>2011-06-15T21:37:58Z</time>
      </trkpt>
      <trkpt lat="46.67395" lon="4.56621">
        <ele>321.78137207031</ele>
        <time>2011-06-15T21:37:59Z</time>
      </trkpt>
      <trkpt lat="46.67371" lon="4.56634">
        <ele>321.67816162109</ele>
        <time>2011-06-15T21:38:00Z</time>
      </trkpt>
      <trkpt lat="46.67349" lon="4.56647">
        <ele>321.5768737793</ele>
        <time>2011-06-15T21:38:01Z</time>
      </trkpt>
      <trkpt lat="46.67325" lon="4.56662">
        <ele>321.46466064453</ele>
        <time>2011-06-15T21:38:02Z</time>
      </trkpt>
      <trkpt lat="46.67233" lon="4.56717">
        <ele>321.04864501953</ele>
        <time>2011-06-15T21:38:06Z</time>
      </trkpt>
      <trkpt lat="46.67208" lon="4.56732">
        <ele>320.93591308594</ele>
        <time>2011-06-15T21:38:07Z</time>
      </trkpt>
      <trkpt lat="46.67184" lon="4.56746">
        <ele>320.83102416992</ele>
        <time>2011-06-15T21:38:08Z</time>
      </trkpt>
      <trkpt lat="46.67163" lon="4.56759">
        <ele>320.73513793945</ele>
        <time>2011-06-15T21:38:09Z</time>
      </trkpt>
      <trkpt lat="46.67139" lon="4.56773">
        <ele>320.63287353516</ele>
        <time>2011-06-15T21:38:10Z</time>
      </trkpt>
      <trkpt lat="46.67116" lon="4.56787">
        <ele>320.52612304688</ele>
        <time>2011-06-15T21:38:11Z</time>
      </trkpt>
      <trkpt lat="46.67093" lon="4.56801">
        <ele>320.42654418945</ele>
        <time>2011-06-15T21:38:12Z</time>
      </trkpt>
      <trkpt lat="46.6707" lon="4.56815">
        <ele>320.32650756836</ele>
        <time>2011-06-15T21:38:13Z</time>
      </trkpt>
      <trkpt lat="46.67046" lon="4.5683">
        <ele>320.22778320312</ele>
        <time>2011-06-15T21:38:14Z</time>
      </trkpt>
      <trkpt lat="46.67023" lon="4.56844">
        <ele>320.13290405273</ele>
        <time>2011-06-15T21:38:15Z</time>
      </trkpt>
      <trkpt lat="46.67" lon="4.56858">
        <ele>320.03213500977</ele>
        <time>2011-06-15T21:38:16Z</time>
      </trkpt>
      <trkpt lat="46.66952" lon="4.56887">
        <ele>319.83053588867</ele>
        <time>2011-06-15T21:38:18Z</time>
      </trkpt>
      <trkpt lat="46.6693" lon="4.56901">
        <ele>319.73825073242</ele>
        <time>2011-06-15T21:38:19Z</time>
      </trkpt>
      <trkpt lat="46.66905" lon="4.56916">
        <ele>319.63507080078</ele>
        <time>2011-06-15T21:38:20Z</time>
      </trkpt>
      <trkpt lat="46.66884" lon="4.56929">
        <ele>319.54782104492</ele>
        <time>2011-06-15T21:38:21Z</time>
      </trkpt>
      <trkpt lat="46.6686" lon="4.56943">
        <ele>319.44906616211</ele>
        <time>2011-06-15T21:38:22Z</time>
      </trkpt>
      <trkpt lat="46.66837" lon="4.56958">
        <ele>319.35162353516</ele>
        <time>2011-06-15T21:38:23Z</time>
      </trkpt>
      <trkpt lat="46.66813" lon="4.56972">
        <ele>319.24765014648</ele>
        <time>2011-06-15T21:38:24Z</time>
      </trkpt>
      <trkpt lat="46.6679" lon="4.56986">
        <ele>319.15078735352</ele>
        <time>2011-06-15T21:38:25Z</time>
      </trkpt>
      <trkpt lat="46.66767" lon="4.57001">
        <ele>319.05108642578</ele>
        <time>2011-06-15T21:38:26Z</time>
      </trkpt>
      <trkpt lat="46.66744" lon="4.57014">
        <ele>318.95541381836</ele>
        <time>2011-06-15T21:38:27Z</time>
      </trkpt>
      <trkpt lat="46.66721" lon="4.57028">
        <ele>318.85894775391</ele>
        <time>2011-06-15T21:38:28Z</time>
      </trkpt>
      <trkpt lat="46.66697" lon="4.57042">
        <ele>318.75924682617</ele>
        <time>2011-06-15T21:38:29Z</time>
      </trkpt>
      <trkpt lat="46.66675" lon="4.57056">
        <ele>318.66287231445</ele>
        <time>2011-06-15T21:38:30Z</time>
      </trkpt>
      <trkpt lat="46.66652" lon="4.57069">
        <ele>318.56875610352</ele>
        <time>2011-06-15T21:38:31Z</time>
      </trkpt>
      <trkpt lat="46.66627" lon="4.57084">
        <ele>318.47378540039</ele>
        <time>2011-06-15T21:38:32Z</time>
      </trkpt>
      <trkpt lat="46.66605" lon="4.57096">
        <ele>318.38775634766</ele>
        <time>2011-06-15T21:38:33Z</time>
      </trkpt>
      <trkpt lat="46.66582" lon="4.5711">
        <ele>318.29598999023</ele>
        <time>2011-06-15T21:38:34Z</time>
      </trkpt>
      <trkpt lat="46.66558" lon="4.57123">
        <ele>318.20504760742</ele>
        <time>2011-06-15T21:38:35Z</time>
      </trkpt>
      <trkpt lat="46.66535" lon="4.57136">
        <ele>318.11486816406</ele>
        <time>2011-06-15T21:38:36Z</time>
      </trkpt>
      <trkpt lat="46.66511" lon="4.57149">
        <ele>318.0256652832</ele>
        <time>2011-06-15T21:38:37Z</time>
      </trkpt>
      <trkpt lat="46.66487" lon="4.57162">
        <ele>317.93731689453</ele>
        <time>2011-06-15T21:38:38Z</time>
      </trkpt>
      <trkpt lat="46.66464" lon="4.57175">
        <ele>317.84939575195</ele>
        <time>2011-06-15T21:38:39Z</time>
      </trkpt>
      <trkpt lat="46.6644" lon="4.57188">
        <ele>317.76251220703</ele>
        <time>2011-06-15T21:38:40Z</time>
      </trkpt>
      <trkpt lat="46.66416" lon="4.57201">
        <ele>317.67245483398</ele>
        <time>2011-06-15T21:38:41Z</time>
      </trkpt>
      <trkpt lat="46.6638" lon="4.5722">
        <ele>317.53649902344</ele>
        <time>2011-06-15T21:38:43Z</time>
      </trkpt>
      <trkpt lat="46.66368" lon="4.57227">
        <ele>317.49206542969</ele>
        <time>2011-06-15T21:38:43Z</time>
      </trkpt>
      <trkpt lat="46.66342" lon="4.57241">
        <ele>317.39584350586</ele>
        <time>2011-06-15T21:38:44Z</time>
      </trkpt>
      <trkpt lat="46.66319" lon="4.57252">
        <ele>317.31845092773</ele>
        <time>2011-06-15T21:38:45Z</time>
      </trkpt>
      <trkpt lat="46.66294" lon="4.57266">
        <ele>317.23376464844</ele>
        <time>2011-06-15T21:38:46Z</time>
      </trkpt>
      <trkpt lat="46.66275" lon="4.57276">
        <ele>317.17156982422</ele>
        <time>2011-06-15T21:38:47Z</time>
      </trkpt>
      <trkpt lat="46.66249" lon="4.57289">
        <ele>317.08709716797</ele>
        <time>2011-06-15T21:38:48Z</time>
      </trkpt>
      <trkpt lat="46.66226" lon="4.57301">
        <ele>317.015625</ele>
        <time>2011-06-15T21:38:49Z</time>
      </trkpt>
      <trkpt lat="46.66203" lon="4.57313">
        <ele>316.95324707031</ele>
        <time>2011-06-15T21:38:50Z</time>
      </trkpt>
      <trkpt lat="46.66177" lon="4.57326">
        <ele>316.88827514648</ele>
        <time>2011-06-15T21:38:51Z</time>
      </trkpt>
      <trkpt lat="46.66152" lon="4.57339">
        <ele>316.833984375</ele>
        <time>2011-06-15T21:38:52Z</time>
      </trkpt>
      <trkpt lat="46.66127" lon="4.57352">
        <ele>316.7868347168</ele>
        <time>2011-06-15T21:38:53Z</time>
      </trkpt>
      <trkpt lat="46.66106" lon="4.57363">
        <ele>316.74938964844</ele>
        <time>2011-06-15T21:38:54Z</time>
      </trkpt>
      <trkpt lat="46.66081" lon="4.57376">
        <ele>316.71408081055</ele>
        <time>2011-06-15T21:38:55Z</time>
      </trkpt>
      <trkpt lat="46.66058" lon="4.57388">
        <ele>316.67999267578</ele>
        <time>2011-06-15T21:38:56Z</time>
      </trkpt>
      <trkpt lat="46.66035" lon="4.574">
        <ele>316.65057373047</ele>
        <time>2011-06-15T21:38:57Z</time>
      </trkpt>
      <trkpt lat="46.66007" lon="4.57415">
        <ele>316.61416625977</ele>
        <time>2011-06-15T21:38:58Z</time>
      </trkpt>
      <trkpt lat="46.6599" lon="4.57423">
        <ele>316.59295654297</ele>
        <time>2011-06-15T21:38:59Z</time>
      </trkpt>
      <trkpt lat="46.65965" lon="4.57436">
        <ele>316.55899047852</ele>
        <time>2011-06-15T21:39:00Z</time>
      </trkpt>
      <trkpt lat="46.6594" lon="4.57449">
        <ele>316.52743530273</ele>
        <time>2011-06-15T21:39:01Z</time>
      </trkpt>
      <trkpt lat="46.65917" lon="4.57461">
        <ele>316.49896240234</ele>
        <time>2011-06-15T21:39:02Z</time>
      </trkpt>
      <trkpt lat="46.65895" lon="4.57472">
        <ele>316.47210693359</ele>
        <time>2011-06-15T21:39:03Z</time>
      </trkpt>
      <trkpt lat="46.65869" lon="4.57486">
        <ele>316.43670654297</ele>
        <time>2011-06-15T21:39:04Z</time>
      </trkpt>
      <trkpt lat="46.65846" lon="4.57498">
        <ele>316.40869140625</ele>
        <time>2011-06-15T21:39:05Z</time>
      </trkpt>
      <trkpt lat="46.65822" lon="4.5751">
        <ele>316.38024902344</ele>
        <time>2011-06-15T21:39:06Z</time>
      </trkpt>
      <trkpt lat="46.65798" lon="4.57522">
        <ele>316.35186767578</ele>
        <time>2011-06-15T21:39:07Z</time>
      </trkpt>
      <trkpt lat="46.65774" lon="4.57534">
        <ele>316.32379150391</ele>
        <time>2011-06-15T21:39:08Z</time>
      </trkpt>
      <trkpt lat="46.65749" lon="4.57548">
        <ele>316.2942199707</ele>
        <time>2011-06-15T21:39:09Z</time>
      </trkpt>
      <trkpt lat="46.65724" lon="4.57561">
        <ele>316.26815795898</ele>
        <time>2011-06-15T21:39:10Z</time>
      </trkpt>
      <trkpt lat="46.65705" lon="4.5757">
        <ele>316.24880981445</ele>
        <time>2011-06-15T21:39:11Z</time>
      </trkpt>
      <trkpt lat="46.65674" lon="4.57586">
        <ele>316.2174987793</ele>
        <time>2011-06-15T21:39:12Z</time>
      </trkpt>
      <trkpt lat="46.65655" lon="4.57596">
        <ele>316.19760131836</ele>
        <time>2011-06-15T21:39:13Z</time>
      </trkpt>
      <trkpt lat="46.65634" lon="4.57607">
        <ele>316.17715454102</ele>
        <time>2011-06-15T21:39:14Z</time>
      </trkpt>
      <trkpt lat="46.65609" lon="4.5762">
        <ele>316.15243530273</ele>
        <time>2011-06-15T21:39:15Z</time>
      </trkpt>
      <trkpt lat="46.65583" lon="4.57633">
        <ele>316.12649536133</ele>
        <time>2011-06-15T21:39:16Z</time>
      </trkpt>
      <trkpt lat="46.65467" lon="4.57694">
        <ele>316.00268554688</ele>
        <time>2011-06-15T21:39:21Z</time>
      </trkpt>
      <trkpt lat="46.65439" lon="4.57708">
        <ele>315.96984863281</ele>
        <time>2011-06-15T21:39:22Z</time>
      </trkpt>
      <trkpt lat="46.6542" lon="4.57719">
        <ele>315.9465637207</ele>
        <time>2011-06-15T21:39:23Z</time>
      </trkpt>
      <trkpt lat="46.65278" lon="4.57794">
        <ele>315.7395324707</ele>
        <time>2011-06-15T21:39:29Z</time>
      </trkpt>
      <trkpt lat="46.65253" lon="4.57808">
        <ele>315.7060546875</ele>
        <time>2011-06-15T21:39:30Z</time>
      </trkpt>
      <trkpt lat="46.6523" lon="4.5782">
        <ele>315.67520141602</ele>
        <time>2011-06-15T21:39:31Z</time>
      </trkpt>
      <trkpt lat="46.65208" lon="4.57832">
        <ele>315.64303588867</ele>
        <time>2011-06-15T21:39:32Z</time>
      </trkpt>
      <trkpt lat="46.65183" lon="4.57846">
        <ele>315.60513305664</ele>
        <time>2011-06-15T21:39:33Z</time>
      </trkpt>
      <trkpt lat="46.6516" lon="4.57858">
        <ele>315.56973266602</ele>
        <time>2011-06-15T21:39:34Z</time>
      </trkpt>
      <trkpt lat="46.65136" lon="4.57871">
        <ele>315.53381347656</ele>
        <time>2011-06-15T21:39:35Z</time>
      </trkpt>
      <trkpt lat="46.65113" lon="4.57884">
        <ele>315.49816894531</ele>
        <time>2011-06-15T21:39:36Z</time>
      </trkpt>
      <trkpt lat="46.6509" lon="4.57896">
        <ele>315.46432495117</ele>
        <time>2011-06-15T21:39:37Z</time>
      </trkpt>
      <trkpt lat="46.65066" lon="4.5791">
        <ele>315.42761230469</ele>
        <time>2011-06-15T21:39:38Z</time>
      </trkpt>
      <trkpt lat="46.65042" lon="4.57922">
        <ele>315.39022827148</ele>
        <time>2011-06-15T21:39:39Z</time>
      </trkpt>
      <trkpt lat="46.65018" lon="4.57935">
        <ele>315.35025024414</ele>
        <time>2011-06-15T21:39:40Z</time>
      </trkpt>
      <trkpt lat="46.64995" lon="4.57948">
        <ele>315.31051635742</ele>
        <time>2011-06-15T21:39:41Z</time>
      </trkpt>
      <trkpt lat="46.64971" lon="4.57962">
        <ele>315.27008056641</ele>
        <time>2011-06-15T21:39:42Z</time>
      </trkpt>
      <trkpt lat="46.64948" lon="4.57974">
        <ele>315.23010253906</ele>
        <time>2011-06-15T21:39:43Z</time>
      </trkpt>
      <trkpt lat="46.64925" lon="4.57987">
        <ele>315.19296264648</ele>
        <time>2011-06-15T21:39:44Z</time>
      </trkpt>
      <trkpt lat="46.64899" lon="4.58001">
        <ele>315.15029907227</ele>
        <time>2011-06-15T21:39:45Z</time>
      </trkpt>
      <trkpt lat="46.64877" lon="4.58014">
        <ele>315.11410522461</ele>
        <time>2011-06-15T21:39:46Z</time>
      </trkpt>
      <trkpt lat="46.64853" lon="4.58027">
        <ele>315.07077026367</ele>
        <time>2011-06-15T21:39:47Z</time>
      </trkpt>
      <trkpt lat="46.64829" lon="4.5804">
        <ele>315.02795410156</ele>
        <time>2011-06-15T21:39:48Z</time>
      </trkpt>
      <trkpt lat="46.64806" lon="4.58053">
        <ele>314.98532104492</ele>
        <time>2011-06-15T21:39:49Z</time>
      </trkpt>
      <trkpt lat="46.64784" lon="4.58065">
        <ele>314.9440612793</ele>
        <time>2011-06-15T21:39:50Z</time>
      </trkpt>
      <trkpt lat="46.64759" lon="4.58079">
        <ele>314.89251708984</ele>
        <time>2011-06-15T21:39:51Z</time>
      </trkpt>
      <trkpt lat="46.64736" lon="4.58093">
        <ele>314.84338378906</ele>
        <time>2011-06-15T21:39:52Z</time>
      </trkpt>
      <trkpt lat="46.64712" lon="4.58106">
        <ele>314.7919921875</ele>
        <time>2011-06-15T21:39:53Z</time>
      </trkpt>
      <trkpt lat="46.64689" lon="4.58119">
        <ele>314.7409362793</ele>
        <time>2011-06-15T21:39:54Z</time>
      </trkpt>
      <trkpt lat="46.64665" lon="4.58132">
        <ele>314.68783569336</ele>
        <time>2011-06-15T21:39:55Z</time>
      </trkpt>
      <trkpt lat="46.6462" lon="4.58158">
        <ele>314.58810424805</ele>
        <time>2011-06-15T21:39:57Z</time>
      </trkpt>
      <trkpt lat="46.64597" lon="4.58171">
        <ele>314.53604125977</ele>
        <time>2011-06-15T21:39:58Z</time>
      </trkpt>
      <trkpt lat="46.6455" lon="4.58198">
        <ele>314.42950439453</ele>
        <time>2011-06-15T21:40:00Z</time>
      </trkpt>
      <trkpt lat="46.64526" lon="4.58211">
        <ele>314.37612915039</ele>
        <time>2011-06-15T21:40:01Z</time>
      </trkpt>
      <trkpt lat="46.6403" lon="4.58487">
        <ele>313.11755371094</ele>
        <time>2011-06-15T21:40:22Z</time>
      </trkpt>
      <trkpt lat="46.63966" lon="4.58523">
        <ele>312.95541381836</ele>
        <time>2011-06-15T21:40:25Z</time>
      </trkpt>
      <trkpt lat="46.63943" lon="4.58536">
        <ele>312.89535522461</ele>
        <time>2011-06-15T21:40:26Z</time>
      </trkpt>
      <trkpt lat="46.63938" lon="4.58538">
        <ele>312.88299560547</ele>
        <time>2011-06-15T21:40:26Z</time>
      </trkpt>
      <trkpt lat="46.63914" lon="4.58552">
        <ele>312.81942749023</ele>
        <time>2011-06-15T21:40:27Z</time>
      </trkpt>
      <trkpt lat="46.63888" lon="4.58566">
        <ele>312.75009155273</ele>
        <time>2011-06-15T21:40:28Z</time>
      </trkpt>
      <trkpt lat="46.63772" lon="4.58628">
        <ele>312.44488525391</ele>
        <time>2011-06-15T21:40:33Z</time>
      </trkpt>
      <trkpt lat="46.63748" lon="4.58641">
        <ele>312.38162231445</ele>
        <time>2011-06-15T21:40:34Z</time>
      </trkpt>
      <trkpt lat="46.63724" lon="4.58654">
        <ele>312.31817626953</ele>
        <time>2011-06-15T21:40:35Z</time>
      </trkpt>
      <trkpt lat="46.637" lon="4.58667">
        <ele>312.25598144531</ele>
        <time>2011-06-15T21:40:36Z</time>
      </trkpt>
      <trkpt lat="46.63678" lon="4.58679">
        <ele>312.19973754883</ele>
        <time>2011-06-15T21:40:37Z</time>
      </trkpt>
      <trkpt lat="46.63654" lon="4.58692">
        <ele>312.13760375977</ele>
        <time>2011-06-15T21:40:38Z</time>
      </trkpt>
      <trkpt lat="46.6363" lon="4.58704">
        <ele>312.07363891602</ele>
        <time>2011-06-15T21:40:39Z</time>
      </trkpt>
      <trkpt lat="46.63606" lon="4.58717">
        <ele>312.0100402832</ele>
        <time>2011-06-15T21:40:40Z</time>
      </trkpt>
      <trkpt lat="46.63582" lon="4.5873">
        <ele>311.94515991211</ele>
        <time>2011-06-15T21:40:41Z</time>
      </trkpt>
      <trkpt lat="46.6356" lon="4.58741">
        <ele>311.88653564453</ele>
        <time>2011-06-15T21:40:42Z</time>
      </trkpt>
      <trkpt lat="46.63536" lon="4.58754">
        <ele>311.82189941406</ele>
        <time>2011-06-15T21:40:43Z</time>
      </trkpt>
      <trkpt lat="46.63511" lon="4.58767">
        <ele>311.75741577148</ele>
        <time>2011-06-15T21:40:44Z</time>
      </trkpt>
      <trkpt lat="46.63487" lon="4.58779">
        <ele>311.69354248047</ele>
        <time>2011-06-15T21:40:45Z</time>
      </trkpt>
      <trkpt lat="46.6346" lon="4.58794">
        <ele>311.62194824219</ele>
        <time>2011-06-15T21:40:46Z</time>
      </trkpt>
      <trkpt lat="46.63439" lon="4.58805">
        <ele>311.56198120117</ele>
        <time>2011-06-15T21:40:47Z</time>
      </trkpt>
      <trkpt lat="46.63417" lon="4.58816">
        <ele>311.50051879883</ele>
        <time>2011-06-15T21:40:48Z</time>
      </trkpt>
      <trkpt lat="46.63393" lon="4.58829">
        <ele>311.43807983398</ele>
        <time>2011-06-15T21:40:49Z</time>
      </trkpt>
      <trkpt lat="46.63371" lon="4.5884">
        <ele>311.37524414062</ele>
        <time>2011-06-15T21:40:50Z</time>
      </trkpt>
      <trkpt lat="46.63346" lon="4.58853">
        <ele>311.30917358398</ele>
        <time>2011-06-15T21:40:51Z</time>
      </trkpt>
      <trkpt lat="46.63322" lon="4.58865">
        <ele>311.24557495117</ele>
        <time>2011-06-15T21:40:52Z</time>
      </trkpt>
      <trkpt lat="46.63298" lon="4.58878">
        <ele>311.17953491211</ele>
        <time>2011-06-15T21:40:53Z</time>
      </trkpt>
      <trkpt lat="46.63203" lon="4.58927">
        <ele>310.9303894043</ele>
        <time>2011-06-15T21:40:57Z</time>
      </trkpt>
      <trkpt lat="46.63179" lon="4.58939">
        <ele>310.86505126953</ele>
        <time>2011-06-15T21:40:58Z</time>
      </trkpt>
      <trkpt lat="46.63155" lon="4.58951">
        <ele>310.80151367188</ele>
        <time>2011-06-15T21:40:59Z</time>
      </trkpt>
      <trkpt lat="46.63131" lon="4.58964">
        <ele>310.73907470703</ele>
        <time>2011-06-15T21:41:00Z</time>
      </trkpt>
      <trkpt lat="46.63085" lon="4.58988">
        <ele>310.62405395508</ele>
        <time>2011-06-15T21:41:02Z</time>
      </trkpt>
      <trkpt lat="46.63061" lon="4.59">
        <ele>310.56216430664</ele>
        <time>2011-06-15T21:41:03Z</time>
      </trkpt>
      <trkpt lat="46.63038" lon="4.59012">
        <ele>310.50518798828</ele>
        <time>2011-06-15T21:41:04Z</time>
      </trkpt>
      <trkpt lat="46.63014" lon="4.59024">
        <ele>310.44592285156</ele>
        <time>2011-06-15T21:41:05Z</time>
      </trkpt>
      <trkpt lat="46.6299" lon="4.59037">
        <ele>310.38610839844</ele>
        <time>2011-06-15T21:41:06Z</time>
      </trkpt>
      <trkpt lat="46.62965" lon="4.59049">
        <ele>310.32907104492</ele>
        <time>2011-06-15T21:41:07Z</time>
      </trkpt>
      <trkpt lat="46.62944" lon="4.5906">
        <ele>310.27655029297</ele>
        <time>2011-06-15T21:41:08Z</time>
      </trkpt>
      <trkpt lat="46.62919" lon="4.59073">
        <ele>310.22015380859</ele>
        <time>2011-06-15T21:41:09Z</time>
      </trkpt>
      <trkpt lat="46.62895" lon="4.59085">
        <ele>310.16455078125</ele>
        <time>2011-06-15T21:41:10Z</time>
      </trkpt>
      <trkpt lat="46.62871" lon="4.59097">
        <ele>310.11145019531</ele>
        <time>2011-06-15T21:41:11Z</time>
      </trkpt>
      <trkpt lat="46.62847" lon="4.5911">
        <ele>310.05966186523</ele>
        <time>2011-06-15T21:41:12Z</time>
      </trkpt>
      <trkpt lat="46.62823" lon="4.59122">
        <ele>310.01174926758</ele>
        <time>2011-06-15T21:41:13Z</time>
      </trkpt>
      <trkpt lat="46.62801" lon="4.59133">
        <ele>309.97113037109</ele>
        <time>2011-06-15T21:41:14Z</time>
      </trkpt>
      <trkpt lat="46.62777" lon="4.59146">
        <ele>309.92398071289</ele>
        <time>2011-06-15T21:41:15Z</time>
      </trkpt>
      <trkpt lat="46.62753" lon="4.59158">
        <ele>309.87893676758</ele>
        <time>2011-06-15T21:41:16Z</time>
      </trkpt>
      <trkpt lat="46.62728" lon="4.5917">
        <ele>309.83343505859</ele>
        <time>2011-06-15T21:41:17Z</time>
      </trkpt>
      <trkpt lat="46.62704" lon="4.59183">
        <ele>309.78860473633</ele>
        <time>2011-06-15T21:41:18Z</time>
      </trkpt>
      <trkpt lat="46.62682" lon="4.59194">
        <ele>309.74868774414</ele>
        <time>2011-06-15T21:41:19Z</time>
      </trkpt>
      <trkpt lat="46.62658" lon="4.59206">
        <ele>309.70413208008</ele>
        <time>2011-06-15T21:41:20Z</time>
      </trkpt>
      <trkpt lat="46.62633" lon="4.59218">
        <ele>309.66003417969</ele>
        <time>2011-06-15T21:41:21Z</time>
      </trkpt>
      <trkpt lat="46.62609" lon="4.5923">
        <ele>309.61611938477</ele>
        <time>2011-06-15T21:41:22Z</time>
      </trkpt>
      <trkpt lat="46.62585" lon="4.59243">
        <ele>309.5725402832</ele>
        <time>2011-06-15T21:41:23Z</time>
      </trkpt>
      <trkpt lat="46.62563" lon="4.59253">
        <ele>309.53680419922</ele>
        <time>2011-06-15T21:41:24Z</time>
      </trkpt>
      <trkpt lat="46.62539" lon="4.59265">
        <ele>309.49819946289</ele>
        <time>2011-06-15T21:41:25Z</time>
      </trkpt>
      <trkpt lat="46.62515" lon="4.59277">
        <ele>309.45880126953</ele>
        <time>2011-06-15T21:41:26Z</time>
      </trkpt>
      <trkpt lat="46.6249" lon="4.59289">
        <ele>309.4176940918</ele>
        <time>2011-06-15T21:41:27Z</time>
      </trkpt>
      <trkpt lat="46.62466" lon="4.59301">
        <ele>309.37878417969</ele>
        <time>2011-06-15T21:41:28Z</time>
      </trkpt>
      <trkpt lat="46.62444" lon="4.59312">
        <ele>309.34378051758</ele>
        <time>2011-06-15T21:41:29Z</time>
      </trkpt>
      <trkpt lat="46.6242" lon="4.59324">
        <ele>309.30541992188</ele>
        <time>2011-06-15T21:41:30Z</time>
      </trkpt>
      <trkpt lat="46.62396" lon="4.59336">
        <ele>309.26708984375</ele>
        <time>2011-06-15T21:41:31Z</time>
      </trkpt>
      <trkpt lat="46.62371" lon="4.59348">
        <ele>309.22698974609</ele>
        <time>2011-06-15T21:41:32Z</time>
      </trkpt>
      <trkpt lat="46.62347" lon="4.5936">
        <ele>309.18716430664</ele>
        <time>2011-06-15T21:41:33Z</time>
      </trkpt>
      <trkpt lat="46.62325" lon="4.59371">
        <ele>309.15100097656</ele>
        <time>2011-06-15T21:41:34Z</time>
      </trkpt>
      <trkpt lat="46.62301" lon="4.59382">
        <ele>309.11373901367</ele>
        <time>2011-06-15T21:41:35Z</time>
      </trkpt>
      <trkpt lat="46.62277" lon="4.59394">
        <ele>309.07641601562</ele>
        <time>2011-06-15T21:41:36Z</time>
      </trkpt>
      <trkpt lat="46.62253" lon="4.59406">
        <ele>309.03952026367</ele>
        <time>2011-06-15T21:41:37Z</time>
      </trkpt>
      <trkpt lat="46.62228" lon="4.59418">
        <ele>309.00241088867</ele>
        <time>2011-06-15T21:41:38Z</time>
      </trkpt>
      <trkpt lat="46.62204" lon="4.5943">
        <ele>308.9670715332</ele>
        <time>2011-06-15T21:41:39Z</time>
      </trkpt>
      <trkpt lat="46.62182" lon="4.59441">
        <ele>308.93649291992</ele>
        <time>2011-06-15T21:41:40Z</time>
      </trkpt>
      <trkpt lat="46.62158" lon="4.59452">
        <ele>308.90536499023</ele>
        <time>2011-06-15T21:41:41Z</time>
      </trkpt>
      <trkpt lat="46.62133" lon="4.59464">
        <ele>308.87750244141</ele>
        <time>2011-06-15T21:41:42Z</time>
      </trkpt>
      <trkpt lat="46.62109" lon="4.59476">
        <ele>308.8532409668</ele>
        <time>2011-06-15T21:41:43Z</time>
      </trkpt>
      <trkpt lat="46.62084" lon="4.59488">
        <ele>308.83084106445</ele>
        <time>2011-06-15T21:41:44Z</time>
      </trkpt>
      <trkpt lat="46.62062" lon="4.59499">
        <ele>308.81381225586</ele>
        <time>2011-06-15T21:41:45Z</time>
      </trkpt>
      <trkpt lat="46.62037" lon="4.59512">
        <ele>308.79223632812</ele>
        <time>2011-06-15T21:41:46Z</time>
      </trkpt>
      <trkpt lat="46.62015" lon="4.59522">
        <ele>308.77536010742</ele>
        <time>2011-06-15T21:41:47Z</time>
      </trkpt>
      <trkpt lat="46.6199" lon="4.59534">
        <ele>308.75854492188</ele>
        <time>2011-06-15T21:41:48Z</time>
      </trkpt>
      <trkpt lat="46.61966" lon="4.59546">
        <ele>308.74185180664</ele>
        <time>2011-06-15T21:41:49Z</time>
      </trkpt>
      <trkpt lat="46.61941" lon="4.59558">
        <ele>308.72509765625</ele>
        <time>2011-06-15T21:41:50Z</time>
      </trkpt>
      <trkpt lat="46.61917" lon="4.5957">
        <ele>308.71017456055</ele>
        <time>2011-06-15T21:41:51Z</time>
      </trkpt>
      <trkpt lat="46.61895" lon="4.59581">
        <ele>308.69683837891</ele>
        <time>2011-06-15T21:41:52Z</time>
      </trkpt>
      <trkpt lat="46.61871" lon="4.59593">
        <ele>308.68212890625</ele>
        <time>2011-06-15T21:41:53Z</time>
      </trkpt>
      <trkpt lat="46.61846" lon="4.59604">
        <ele>308.66738891602</ele>
        <time>2011-06-15T21:41:54Z</time>
      </trkpt>
      <trkpt lat="46.61822" lon="4.59616">
        <ele>308.65270996094</ele>
        <time>2011-06-15T21:41:55Z</time>
      </trkpt>
      <trkpt lat="46.61798" lon="4.59628">
        <ele>308.63815307617</ele>
        <time>2011-06-15T21:41:56Z</time>
      </trkpt>
      <trkpt lat="46.61776" lon="4.59639">
        <ele>308.62512207031</ele>
        <time>2011-06-15T21:41:57Z</time>
      </trkpt>
      <trkpt lat="46.61752" lon="4.59651">
        <ele>308.60906982422</ele>
        <time>2011-06-15T21:41:58Z</time>
      </trkpt>
      <trkpt lat="46.61726" lon="4.59663">
        <ele>308.59222412109</ele>
        <time>2011-06-15T21:41:59Z</time>
      </trkpt>
      <trkpt lat="46.61704" lon="4.59673">
        <ele>308.57641601562</ele>
        <time>2011-06-15T21:42:00Z</time>
      </trkpt>
      <trkpt lat="46.6168" lon="4.59685">
        <ele>308.55892944336</ele>
        <time>2011-06-15T21:42:01Z</time>
      </trkpt>
      <trkpt lat="46.61585" lon="4.59731">
        <ele>308.48504638672</ele>
        <time>2011-06-15T21:42:05Z</time>
      </trkpt>
      <trkpt lat="46.6156" lon="4.59743">
        <ele>308.46624755859</ele>
        <time>2011-06-15T21:42:06Z</time>
      </trkpt>
      <trkpt lat="46.61537" lon="4.59754">
        <ele>308.44671630859</ele>
        <time>2011-06-15T21:42:07Z</time>
      </trkpt>
      <trkpt lat="46.61513" lon="4.59766">
        <ele>308.42663574219</ele>
        <time>2011-06-15T21:42:08Z</time>
      </trkpt>
      <trkpt lat="46.61488" lon="4.59777">
        <ele>308.40646362305</ele>
        <time>2011-06-15T21:42:09Z</time>
      </trkpt>
      <trkpt lat="46.61464" lon="4.59789">
        <ele>308.38629150391</ele>
        <time>2011-06-15T21:42:10Z</time>
      </trkpt>
      <trkpt lat="46.6144" lon="4.59801">
        <ele>308.3645324707</ele>
        <time>2011-06-15T21:42:11Z</time>
      </trkpt>
      <trkpt lat="46.61415" lon="4.59813">
        <ele>308.34289550781</ele>
        <time>2011-06-15T21:42:12Z</time>
      </trkpt>
      <trkpt lat="46.61393" lon="4.59823">
        <ele>308.32363891602</ele>
        <time>2011-06-15T21:42:13Z</time>
      </trkpt>
      <trkpt lat="46.61369" lon="4.59835">
        <ele>308.30224609375</ele>
        <time>2011-06-15T21:42:14Z</time>
      </trkpt>
      <trkpt lat="46.61344" lon="4.59846">
        <ele>308.28094482422</ele>
        <time>2011-06-15T21:42:15Z</time>
      </trkpt>
      <trkpt lat="46.6132" lon="4.59858">
        <ele>308.25814819336</ele>
        <time>2011-06-15T21:42:16Z</time>
      </trkpt>
      <trkpt lat="46.61295" lon="4.59869">
        <ele>308.2353515625</ele>
        <time>2011-06-15T21:42:17Z</time>
      </trkpt>
      <trkpt lat="46.61273" lon="4.5988">
        <ele>308.21621704102</ele>
        <time>2011-06-15T21:42:18Z</time>
      </trkpt>
      <trkpt lat="46.61249" lon="4.59891">
        <ele>308.19378662109</ele>
        <time>2011-06-15T21:42:19Z</time>
      </trkpt>
      <trkpt lat="46.61224" lon="4.59903">
        <ele>308.16806030273</ele>
        <time>2011-06-15T21:42:20Z</time>
      </trkpt>
      <trkpt lat="46.612" lon="4.59914">
        <ele>308.14266967773</ele>
        <time>2011-06-15T21:42:21Z</time>
      </trkpt>
      <trkpt lat="46.61178" lon="4.59925">
        <ele>308.11956787109</ele>
        <time>2011-06-15T21:42:22Z</time>
      </trkpt>
      <trkpt lat="46.61153" lon="4.59936">
        <ele>308.09423828125</ele>
        <time>2011-06-15T21:42:23Z</time>
      </trkpt>
      <trkpt lat="46.61129" lon="4.59948">
        <ele>308.06732177734</ele>
        <time>2011-06-15T21:42:24Z</time>
      </trkpt>
      <trkpt lat="46.61104" lon="4.59959">
        <ele>308.04064941406</ele>
        <time>2011-06-15T21:42:25Z</time>
      </trkpt>
      <trkpt lat="46.6108" lon="4.59971">
        <ele>308.01419067383</ele>
        <time>2011-06-15T21:42:26Z</time>
      </trkpt>
      <trkpt lat="46.61058" lon="4.59981">
        <ele>307.98892211914</ele>
        <time>2011-06-15T21:42:27Z</time>
      </trkpt>
      <trkpt lat="46.61032" lon="4.59993">
        <ele>307.95932006836</ele>
        <time>2011-06-15T21:42:28Z</time>
      </trkpt>
      <trkpt lat="46.6101" lon="4.60003">
        <ele>307.93426513672</ele>
        <time>2011-06-15T21:42:29Z</time>
      </trkpt>
      <trkpt lat="46.60985" lon="4.60014">
        <ele>307.90649414062</ele>
        <time>2011-06-15T21:42:30Z</time>
      </trkpt>
      <trkpt lat="46.60961" lon="4.60025">
        <ele>307.87893676758</ele>
        <time>2011-06-15T21:42:31Z</time>
      </trkpt>
      <trkpt lat="46.60936" lon="4.60037">
        <ele>307.84994506836</ele>
        <time>2011-06-15T21:42:32Z</time>
      </trkpt>
      <trkpt lat="46.60912" lon="4.60048">
        <ele>307.82138061523</ele>
        <time>2011-06-15T21:42:33Z</time>
      </trkpt>
      <trkpt lat="46.6089" lon="4.60058">
        <ele>307.79525756836</ele>
        <time>2011-06-15T21:42:34Z</time>
      </trkpt>
      <trkpt lat="46.60866" lon="4.60069">
        <ele>307.76678466797</ele>
        <time>2011-06-15T21:42:35Z</time>
      </trkpt>
      <trkpt lat="46.60841" lon="4.6008">
        <ele>307.73657226562</ele>
        <time>2011-06-15T21:42:36Z</time>
      </trkpt>
      <trkpt lat="46.60817" lon="4.60091">
        <ele>307.70666503906</ele>
        <time>2011-06-15T21:42:37Z</time>
      </trkpt>
      <trkpt lat="46.60792" lon="4.60102">
        <ele>307.67672729492</ele>
        <time>2011-06-15T21:42:38Z</time>
      </trkpt>
      <trkpt lat="46.6077" lon="4.60112">
        <ele>307.64974975586</ele>
        <time>2011-06-15T21:42:39Z</time>
      </trkpt>
      <trkpt lat="46.60745" lon="4.60123">
        <ele>307.62023925781</ele>
        <time>2011-06-15T21:42:40Z</time>
      </trkpt>
      <trkpt lat="46.60721" lon="4.60134">
        <ele>307.58911132812</ele>
        <time>2011-06-15T21:42:41Z</time>
      </trkpt>
      <trkpt lat="46.60696" lon="4.60145">
        <ele>307.55810546875</ele>
        <time>2011-06-15T21:42:42Z</time>
      </trkpt>
      <trkpt lat="46.60671" lon="4.60156">
        <ele>307.52728271484</ele>
        <time>2011-06-15T21:42:43Z</time>
      </trkpt>
      <trkpt lat="46.60649" lon="4.60166">
        <ele>307.49960327148</ele>
        <time>2011-06-15T21:42:44Z</time>
      </trkpt>
      <trkpt lat="46.60625" lon="4.60177">
        <ele>307.46743774414</ele>
        <time>2011-06-15T21:42:45Z</time>
      </trkpt>
      <trkpt lat="46.60575" lon="4.60198">
        <ele>307.40368652344</ele>
        <time>2011-06-15T21:42:47Z</time>
      </trkpt>
      <trkpt lat="46.60551" lon="4.60209">
        <ele>307.37033081055</ele>
        <time>2011-06-15T21:42:48Z</time>
      </trkpt>
      <trkpt lat="46.60455" lon="4.6025">
        <ele>307.23709106445</ele>
        <time>2011-06-15T21:42:52Z</time>
      </trkpt>
      <trkpt lat="46.6043" lon="4.60261">
        <ele>307.20455932617</ele>
        <time>2011-06-15T21:42:53Z</time>
      </trkpt>
      <trkpt lat="46.60408" lon="4.6027">
        <ele>307.17654418945</ele>
        <time>2011-06-15T21:42:54Z</time>
      </trkpt>
      <trkpt lat="46.60383" lon="4.60281">
        <ele>307.14651489258</ele>
        <time>2011-06-15T21:42:55Z</time>
      </trkpt>
      <trkpt lat="46.60351" lon="4.60294">
        <ele>307.11041259766</ele>
        <time>2011-06-15T21:42:57Z</time>
      </trkpt>
      <trkpt lat="46.60334" lon="4.60301">
        <ele>307.09014892578</ele>
        <time>2011-06-15T21:42:57Z</time>
      </trkpt>
      <trkpt lat="46.60309" lon="4.60312">
        <ele>307.06072998047</ele>
        <time>2011-06-15T21:42:58Z</time>
      </trkpt>
      <trkpt lat="46.60265" lon="4.6033">
        <ele>307.01425170898</ele>
        <time>2011-06-15T21:43:00Z</time>
      </trkpt>
      <trkpt lat="46.6026" lon="4.60332">
        <ele>307.00912475586</ele>
        <time>2011-06-15T21:43:00Z</time>
      </trkpt>
      <trkpt lat="46.60236" lon="4.60342">
        <ele>306.98489379883</ele>
        <time>2011-06-15T21:43:01Z</time>
      </trkpt>
      <trkpt lat="46.60201" lon="4.60356">
        <ele>306.95254516602</ele>
        <time>2011-06-15T21:43:03Z</time>
      </trkpt>
      <trkpt lat="46.60189" lon="4.60361">
        <ele>306.94049072266</ele>
        <time>2011-06-15T21:43:03Z</time>
      </trkpt>
      <trkpt lat="46.60164" lon="4.6037">
        <ele>306.91918945312</ele>
        <time>2011-06-15T21:43:04Z</time>
      </trkpt>
      <trkpt lat="46.60139" lon="4.6038">
        <ele>306.89782714844</ele>
        <time>2011-06-15T21:43:05Z</time>
      </trkpt>
      <trkpt lat="46.60115" lon="4.6039">
        <ele>306.87652587891</ele>
        <time>2011-06-15T21:43:06Z</time>
      </trkpt>
      <trkpt lat="46.60092" lon="4.60398">
        <ele>306.85751342773</ele>
        <time>2011-06-15T21:43:07Z</time>
      </trkpt>
      <trkpt lat="46.60068" lon="4.60408">
        <ele>306.83795166016</ele>
        <time>2011-06-15T21:43:08Z</time>
      </trkpt>
      <trkpt lat="46.60043" lon="4.60417">
        <ele>306.81988525391</ele>
        <time>2011-06-15T21:43:09Z</time>
      </trkpt>
      <trkpt lat="46.60017" lon="4.60427">
        <ele>306.80056762695</ele>
        <time>2011-06-15T21:43:10Z</time>
      </trkpt>
      <trkpt lat="46.59992" lon="4.60436">
        <ele>306.78396606445</ele>
        <time>2011-06-15T21:43:11Z</time>
      </trkpt>
      <trkpt lat="46.5997" lon="4.60444">
        <ele>306.76898193359</ele>
        <time>2011-06-15T21:43:12Z</time>
      </trkpt>
      <trkpt lat="46.59945" lon="4.60454">
        <ele>306.75228881836</ele>
        <time>2011-06-15T21:43:13Z</time>
      </trkpt>
      <trkpt lat="46.5992" lon="4.60463">
        <ele>306.73553466797</ele>
        <time>2011-06-15T21:43:14Z</time>
      </trkpt>
      <trkpt lat="46.59895" lon="4.60472">
        <ele>306.71896362305</ele>
        <time>2011-06-15T21:43:15Z</time>
      </trkpt>
      <trkpt lat="46.59873" lon="4.6048">
        <ele>306.70422363281</ele>
        <time>2011-06-15T21:43:16Z</time>
      </trkpt>
      <trkpt lat="46.59848" lon="4.60488">
        <ele>306.68774414062</ele>
        <time>2011-06-15T21:43:17Z</time>
      </trkpt>
      <trkpt lat="46.59823" lon="4.60497">
        <ele>306.67111206055</ele>
        <time>2011-06-15T21:43:18Z</time>
      </trkpt>
      <trkpt lat="46.59798" lon="4.60506">
        <ele>306.65325927734</ele>
        <time>2011-06-15T21:43:19Z</time>
      </trkpt>
      <trkpt lat="46.59775" lon="4.60513">
        <ele>306.63708496094</ele>
        <time>2011-06-15T21:43:20Z</time>
      </trkpt>
      <trkpt lat="46.59748" lon="4.60522">
        <ele>306.61779785156</ele>
        <time>2011-06-15T21:43:21Z</time>
      </trkpt>
      <trkpt lat="46.59725" lon="4.6053">
        <ele>306.6018371582</ele>
        <time>2011-06-15T21:43:22Z</time>
      </trkpt>
      <trkpt lat="46.597" lon="4.60538">
        <ele>306.58410644531</ele>
        <time>2011-06-15T21:43:23Z</time>
      </trkpt>
      <trkpt lat="46.59677" lon="4.60546">
        <ele>306.56784057617</ele>
        <time>2011-06-15T21:43:24Z</time>
      </trkpt>
      <trkpt lat="46.5965" lon="4.60554">
        <ele>306.54806518555</ele>
        <time>2011-06-15T21:43:25Z</time>
      </trkpt>
      <trkpt lat="46.59625" lon="4.60562">
        <ele>306.52914428711</ele>
        <time>2011-06-15T21:43:26Z</time>
      </trkpt>
      <trkpt lat="46.59603" lon="4.60569">
        <ele>306.51223754883</ele>
        <time>2011-06-15T21:43:27Z</time>
      </trkpt>
      <trkpt lat="46.59578" lon="4.60577">
        <ele>306.49346923828</ele>
        <time>2011-06-15T21:43:28Z</time>
      </trkpt>
      <trkpt lat="46.59553" lon="4.60584">
        <ele>306.47479248047</ele>
        <time>2011-06-15T21:43:29Z</time>
      </trkpt>
      <trkpt lat="46.59527" lon="4.60592">
        <ele>306.45611572266</ele>
        <time>2011-06-15T21:43:30Z</time>
      </trkpt>
      <trkpt lat="46.59503" lon="4.60599">
        <ele>306.43664550781</ele>
        <time>2011-06-15T21:43:31Z</time>
      </trkpt>
      <trkpt lat="46.59478" lon="4.60607">
        <ele>306.41665649414</ele>
        <time>2011-06-15T21:43:32Z</time>
      </trkpt>
      <trkpt lat="46.59455" lon="4.60613">
        <ele>306.39868164062</ele>
        <time>2011-06-15T21:43:33Z</time>
      </trkpt>
      <trkpt lat="46.5943" lon="4.60621">
        <ele>306.37881469727</ele>
        <time>2011-06-15T21:43:34Z</time>
      </trkpt>
      <trkpt lat="46.59404" lon="4.60628">
        <ele>306.35891723633</ele>
        <time>2011-06-15T21:43:35Z</time>
      </trkpt>
      <trkpt lat="46.59379" lon="4.60635">
        <ele>306.33917236328</ele>
        <time>2011-06-15T21:43:36Z</time>
      </trkpt>
      <trkpt lat="46.59354" lon="4.60642">
        <ele>306.31942749023</ele>
        <time>2011-06-15T21:43:37Z</time>
      </trkpt>
      <trkpt lat="46.59331" lon="4.60649">
        <ele>306.30181884766</ele>
        <time>2011-06-15T21:43:38Z</time>
      </trkpt>
      <trkpt lat="46.59306" lon="4.60656">
        <ele>306.28085327148</ele>
        <time>2011-06-15T21:43:39Z</time>
      </trkpt>
      <trkpt lat="46.5928" lon="4.60663">
        <ele>306.25982666016</ele>
        <time>2011-06-15T21:43:40Z</time>
      </trkpt>
      <trkpt lat="46.59255" lon="4.6067">
        <ele>306.23904418945</ele>
        <time>2011-06-15T21:43:41Z</time>
      </trkpt>
      <trkpt lat="46.59232" lon="4.60676">
        <ele>306.22024536133</ele>
        <time>2011-06-15T21:43:42Z</time>
      </trkpt>
      <trkpt lat="46.59207" lon="4.60683">
        <ele>306.19958496094</ele>
        <time>2011-06-15T21:43:43Z</time>
      </trkpt>
      <trkpt lat="46.59182" lon="4.6069">
        <ele>306.17889404297</ele>
        <time>2011-06-15T21:43:44Z</time>
      </trkpt>
      <trkpt lat="46.59156" lon="4.60697">
        <ele>306.15832519531</ele>
        <time>2011-06-15T21:43:45Z</time>
      </trkpt>
      <trkpt lat="46.59133" lon="4.60703">
        <ele>306.14093017578</ele>
        <time>2011-06-15T21:43:46Z</time>
      </trkpt>
      <trkpt lat="46.59108" lon="4.6071">
        <ele>306.12200927734</ele>
        <time>2011-06-15T21:43:47Z</time>
      </trkpt>
      <trkpt lat="46.59083" lon="4.60716">
        <ele>306.10305786133</ele>
        <time>2011-06-15T21:43:48Z</time>
      </trkpt>
      <trkpt lat="46.59058" lon="4.60723">
        <ele>306.08279418945</ele>
        <time>2011-06-15T21:43:49Z</time>
      </trkpt>
      <trkpt lat="46.58996" lon="4.60739">
        <ele>306.03399658203</ele>
        <time>2011-06-15T21:43:51Z</time>
      </trkpt>
      <trkpt lat="46.58983" lon="4.60743">
        <ele>306.02355957031</ele>
        <time>2011-06-15T21:43:52Z</time>
      </trkpt>
      <trkpt lat="46.58977" lon="4.60744">
        <ele>306.01864624023</ele>
        <time>2011-06-15T21:43:52Z</time>
      </trkpt>
      <trkpt lat="46.58959" lon="4.60749">
        <ele>306.0036315918</ele>
        <time>2011-06-15T21:43:53Z</time>
      </trkpt>
      <trkpt lat="46.58932" lon="4.60756">
        <ele>305.98095703125</ele>
        <time>2011-06-15T21:43:54Z</time>
      </trkpt>
      <trkpt lat="46.58907" lon="4.60762">
        <ele>305.96005249023</ele>
        <time>2011-06-15T21:43:55Z</time>
      </trkpt>
      <trkpt lat="46.58882" lon="4.60769">
        <ele>305.9391784668</ele>
        <time>2011-06-15T21:43:56Z</time>
      </trkpt>
      <trkpt lat="46.58859" lon="4.60775">
        <ele>305.9182434082</ele>
        <time>2011-06-15T21:43:57Z</time>
      </trkpt>
      <trkpt lat="46.58833" lon="4.60782">
        <ele>305.89544677734</ele>
        <time>2011-06-15T21:43:58Z</time>
      </trkpt>
      <trkpt lat="46.58811" lon="4.60788">
        <ele>305.87573242188</ele>
        <time>2011-06-15T21:43:59Z</time>
      </trkpt>
      <trkpt lat="46.58786" lon="4.60794">
        <ele>305.85385131836</ele>
        <time>2011-06-15T21:44:00Z</time>
      </trkpt>
    </trkseg>
  </trk>
</gpx>